M I D A S
Marine Information and Data Acquisition System
Tripno 1811 of the Zeeleeuw from 2009-11-20 09:27:40 to 2009-11-20 15:13:05
Back to CruiseResearch ActivitiesStationsMapUnderway DataData graphs

EquipmentUnitsComment
TimeDGPSUTC
LatitudeDGPSDM.mWGS84
LongitudeDGPSDM.mWGS84
TemperatureSBE03/SBE38deg celciusITS90
ConductivitySBE21S/mITS90
SalinitySBE21 Practical Salinity Units
ChlorophylAChelsea fluorimeterg/lCalibrated in Aceton
Missing or incorrect values are displayed as -999
Sea surface data collected by the RV Zeeleeuw from 2009-11-20 09:26:08 to 2009-11-20 15:18:39
                                                                                    Next 1000 lines
Time Latitude Longitude Temperature Conductivity Salinity ChlorophylA
2009-11-20 09:26:18 51°13.661 2°55.954 18.3067 0.039121 0.223534 -1.000568
2009-11-20 09:26:23 51°13.662 2°55.95 18.346 0.039121 0.223534 -1.000568
2009-11-20 09:26:28 51°13.663 2°55.946 18.3435 0.039532 0.225943 -1.000568
2009-11-20 09:26:33 51°13.665 2°55.941 18.3557 0.039224 0.224151 -1.000568
2009-11-20 09:26:39 51°13.667 2°55.935 18.3599 0.039429 0.225355 -1.000568
2009-11-20 09:26:45 51°13.669 2°55.928 18.3433 0.039429 0.22536 -1.000568
2009-11-20 09:26:50 51°13.671 2°55.922 18.3602 0.039429 0.22536 -1.000568
2009-11-20 09:26:56 51°13.673 2°55.914 18.3746 0.039429 0.22536 -1.000568
2009-11-20 09:27:02 51°13.674 2°55.906 18.3742 0.039429 0.225372 -1.000568
2009-11-20 09:27:06 51°13.676 2°55.9 18.3833 0.039532 0.225973 -0.965744
2009-11-20 09:27:12 51°13.677 2°55.892 18.3852 0.039532 0.225981 -1.000568
2009-11-20 09:27:16 51°13.678 2°55.886 18.3879 0.039429 0.225385 -1.000568
2009-11-20 09:27:21 51°13.68 2°55.879 18.3787 0.039532 0.225985 -1.000568
2009-11-20 09:27:26 51°13.681 2°55.872 18.3841 0.039532 0.225985 -1.000568
2009-11-20 09:27:32 51°13.682 2°55.863 18.385 0.039429 0.225389 -1.000568
2009-11-20 09:27:37 51°13.683 2°55.856 18.3786 0.039532 0.225998 -1.000568
2009-11-20 09:27:41 51°13.684 2°55.851 18.3877 0.039635 0.226603 -1.000568
2009-11-20 09:27:46 51°13.685 2°55.843 18.3924 0.039532 0.226006 -1.000568
2009-11-20 09:27:52 51°13.686 2°55.835 18.3976 0.039532 0.226011 -1.000568
2009-11-20 09:27:57 51°13.686 2°55.828 18.3993 0.039532 0.226011 -1.000568
2009-11-20 09:28:01 51°13.687 2°55.822 18.4029 0.039532 0.226019 -1.000568
2009-11-20 09:28:06 51°13.687 2°55.815 18.4053 0.039532 0.226023 -1.000568
2009-11-20 09:28:12 51°13.687 2°55.808 18.4086 0.039635 0.226628 -1.000568
2009-11-20 09:28:17 51°13.688 2°55.801 18.4102 0.039532 0.226032 -1.000568
2009-11-20 09:28:21 51°13.688 2°55.796 18.4123 0.039532 0.226036 -1.000568
2009-11-20 09:28:26 51°13.687 2°55.79 18.4137 0.039532 0.226036 -1.000568
2009-11-20 09:28:31 51°13.687 2°55.785 18.4152 0.039532 0.22604 -1.000568
2009-11-20 09:28:37 51°13.687 2°55.778 18.4171 0.039532 0.226044 -1.000568
2009-11-20 09:28:42 51°13.687 2°55.773 18.4188 0.039841 0.227851 -1.000568
2009-11-20 09:28:46 51°13.687 2°55.77 18.4218 0.040047 0.229066 -1.000568
2009-11-20 09:28:51 51°13.687 2°55.768 18.4231 0.039841 0.227876 -1.000568
2009-11-20 09:28:56 51°13.687 2°55.767 18.4232 0.039841 0.227876 -1.000568
2009-11-20 09:29:01 51°13.688 2°55.767 18.4232 0.039635 0.226679 -1.000568
2009-11-20 09:29:06 51°13.688 2°55.766 18.4246 0.039738 0.227284 -1.000568
2009-11-20 09:29:10 51°13.689 2°55.766 18.4251 0.039738 0.227288 -1.000568
2009-11-20 09:29:15 51°13.69 2°55.767 18.4252 0.039635 0.226696 -1.000568
2009-11-20 09:29:21 51°13.691 2°55.767 18.4248 0.039635 0.226696 -1.000568
2009-11-20 09:29:25 51°13.692 2°55.767 18.4255 0.039635 0.226696 -1.000568
2009-11-20 09:29:30 51°13.693 2°55.768 18.4247 0.039635 0.2267 -1.000568
2009-11-20 09:29:35 51°13.695 2°55.769 18.4167 0.039327 0.224897 -1.000568
2009-11-20 09:29:40 51°13.696 2°55.769 18.3859 0.039429 0.225494 -1.000568
2009-11-20 09:29:45 51°13.697 2°55.769 18.3925 0.039327 0.224897 -1.000568
2009-11-20 09:29:50 51°13.697 2°55.769 18.4001 0.039429 0.225498 -1.000568
2009-11-20 09:29:54 51°13.697 2°55.769 18.3806 0.039429 0.225498 -1.000568
2009-11-20 09:29:59 51°13.696 2°55.769 18.3841 0.039018 0.2231 -1.000568
2009-11-20 09:30:04 51°13.696 2°55.768 18.3892 0.039327 0.224902 -1.000568
2009-11-20 09:30:09 51°13.695 2°55.767 18.3915 0.039327 0.224906 -1.000568
2009-11-20 09:30:14 51°13.694 2°55.767 18.399 0.039532 0.226112 -1.000568
2009-11-20 09:30:18 51°13.693 2°55.766 18.4041 0.039532 0.226116 -1.000568
2009-11-20 09:30:23 51°13.692 2°55.765 18.4091 0.039532 0.226116 -1.000568
2009-11-20 09:30:28 51°13.691 2°55.765 18.4137 0.039841 0.227927 -1.000568
2009-11-20 09:30:33 51°13.691 2°55.764 18.4174 0.039944 0.228537 -1.000568
2009-11-20 09:30:38 51°13.692 2°55.764 18.4199 0.039841 0.227944 -1.000568
2009-11-20 09:30:43 51°13.693 2°55.763 18.4219 0.039841 0.227953 -1.000568
2009-11-20 09:30:48 51°13.694 2°55.762 18.4239 0.039738 0.227356 -1.000568
2009-11-20 09:30:53 51°13.696 2°55.761 18.4238 0.039738 0.227356 -1.000568
2009-11-20 09:30:58 51°13.698 2°55.759 18.4273 0.039532 0.226158 -1.000568
2009-11-20 09:31:03 51°13.7 2°55.757 18.4283 0.039635 0.226763 -1.000568
2009-11-20 09:31:08 51°13.703 2°55.754 18.4272 0.039224 0.224359 -1.000568
2009-11-20 09:31:13 51°13.706 2°55.75 18.4258 0.039121 0.223755 -1.000568
2009-11-20 09:31:18 51°13.71 2°55.746 18.4234 0.039018 0.22315 -1.000568
2009-11-20 09:31:23 51°13.715 2°55.741 18.4223 0.039018 0.22315 -1.000568
2009-11-20 09:31:28 51°13.72 2°55.735 18.4241 0.039429 0.225557 -1.000568
2009-11-20 09:31:33 51°13.726 2°55.729 18.4207 0.039018 0.223154 -1.000568
2009-11-20 09:31:38 51°13.732 2°55.722 18.4235 0.039121 0.22375 -1.000568
2009-11-20 09:31:43 51°13.738 2°55.715 18.4202 0.039018 0.22315 -1.000568
2009-11-20 09:31:48 51°13.745 2°55.708 18.4196 0.039224 0.224355 -1.000568
2009-11-20 09:31:53 51°13.752 2°55.701 18.4186 0.039224 0.224355 -1.000568
2009-11-20 09:31:58 51°13.76 2°55.693 18.4 0.038915 0.222553 -1.000568
2009-11-20 09:32:03 51°13.768 2°55.685 18.3983 0.039121 0.223759 -1.000568
2009-11-20 09:32:08 51°13.776 2°55.677 18.3833 0.038915 0.222557 -1.000568
2009-11-20 09:32:13 51°13.785 2°55.67 18.3871 0.039121 0.223767 -1.000568
2009-11-20 09:32:18 51°13.794 2°55.662 18.3915 0.039121 0.223767 -1.000568
2009-11-20 09:32:23 51°13.803 2°55.654 18.3937 0.039121 0.223767 -1.000568
2009-11-20 09:32:28 51°13.812 2°55.646 18.4009 0.039018 0.223175 -1.000568
2009-11-20 09:32:33 51°13.822 2°55.638 18.3862 0.038709 0.221373 -1.000568
2009-11-20 09:32:38 51°13.832 2°55.63 18.3901 0.039018 0.223175 -1.000568
2009-11-20 09:32:43 51°13.842 2°55.622 18.3954 0.039018 0.223187 -1.000568
2009-11-20 09:32:48 51°13.852 2°55.614 18.387 0.038503 0.22018 -1.000568
2009-11-20 09:32:53 51°13.862 2°55.605 18.3828 0.038503 0.22018 -1.000568
2009-11-20 09:32:58 51°13.873 2°55.597 18.3804 0.038709 0.221381 -1.000568
2009-11-20 09:33:03 51°13.884 2°55.589 18.385 0.039224 0.224393 -1.000568
2009-11-20 09:33:08 51°13.894 2°55.58 18.3867 0.038709 0.221394 -1.000568
2009-11-20 09:33:13 51°13.905 2°55.572 18.3846 0.039018 0.2232 -1.000568
2009-11-20 09:33:18 51°13.916 2°55.563 18.3904 0.038606 0.220801 -1.000568
2009-11-20 09:33:23 51°13.927 2°55.554 18.3894 0.038606 0.220801 -1.000568
2009-11-20 09:33:28 51°13.938 2°55.545 18.3875 0.038709 0.221402 -1.000568
2009-11-20 09:33:33 51°13.949 2°55.537 18.3736 0.038812 0.222002 -1.000568
2009-11-20 09:33:38 51°13.96 2°55.528 18.3879 0.039121 0.223813 -1.000568
2009-11-20 09:33:43 51°13.972 2°55.52 18.3902 0.038606 0.220814 -1.000568
2009-11-20 09:33:48 51°13.983 2°55.511 18.3839 0.038812 0.222015 -1.000568
2009-11-20 09:33:53 51°13.995 2°55.503 18.3867 0.038812 0.222015 -1.000568
2009-11-20 09:33:58 51°14.007 2°55.494 18.3928 0.038709 0.221418 -1.000568
2009-11-20 09:34:03 51°14.018 2°55.486 18.4008 0.039327 0.225036 -1.000568
2009-11-20 09:34:08 51°14.03 2°55.478 18.3993 0.038606 0.22083 -1.000568
2009-11-20 09:34:13 51°14.042 2°55.47 18.4003 0.038915 0.222632 -1.000568
2009-11-20 09:34:18 51°14.053 2°55.461 18.4041 0.039121 0.223838 -1.000568
2009-11-20 09:34:23 51°14.065 2°55.452 18.4069 0.039121 0.223838 -1.000568
2009-11-20 09:34:28 51°14.077 2°55.444 18.3934 0.038298 0.219037 -1.000568
2009-11-20 09:34:33 51°14.088 2°55.434 18.3703 0.038709 0.221427 -1.000568
2009-11-20 09:34:38 51°14.1 2°55.426 18.3952 0.039224 0.224447 -1.000568
2009-11-20 09:34:43 51°14.112 2°55.417 18.3972 0.039018 0.223254 -1.000568
2009-11-20 09:34:48 51°14.123 2°55.408 18.3928 0.0384 0.21965 -0.965744
2009-11-20 09:34:53 51°14.135 2°55.398 18.3807 0.0384 0.21965 -0.965744
2009-11-20 09:34:58 51°14.146 2°55.388 18.3815 0.038709 0.221447 -1.000568
2009-11-20 09:35:03 51°14.157 2°55.377 18.3923 0.039224 0.22446 -1.000568
2009-11-20 09:35:08 51°14.169 2°55.367 18.3892 0.038812 0.22206 -1.000568
2009-11-20 09:35:13 51°14.18 2°55.356 18.3783 0.039018 0.223262 -1.000568
2009-11-20 09:35:18 51°14.19 2°55.344 18.3894 0.039018 0.223274 -1.000568
2009-11-20 09:35:23 51°14.201 2°55.333 18.3863 0.039018 0.223274 -1.000568
2009-11-20 09:35:28 51°14.211 2°55.32 18.3591 0.038503 0.220271 -1.000568
2009-11-20 09:35:33 51°14.221 2°55.307 18.3687 0.038915 0.222674 -1.000568
2009-11-20 09:35:38 51°14.23 2°55.294 18.3716 0.038915 0.222678 -1.000568
2009-11-20 09:35:43 51°14.24 2°55.28 18.3742 0.038812 0.222085 -1.000568
2009-11-20 09:35:48 51°14.249 2°55.266 18.3739 0.039018 0.223291 -1.000568
2009-11-20 09:35:53 51°14.258 2°55.252 18.378 0.039018 0.223291 -1.000568
2009-11-20 09:35:58 51°14.266 2°55.237 18.3369 0.038812 0.222089 -0.965744
2009-11-20 09:36:03 51°14.275 2°55.222 18.3268 0.038092 0.217877 -1.000568
2009-11-20 09:36:08 51°14.283 2°55.206 18.3284 0.039121 0.223892 -1.000568
2009-11-20 09:36:13 51°14.291 2°55.19 18.2776 0.038092 0.217889 -1.000568
2009-11-20 09:36:18 51°14.299 2°55.174 18.2743 0.038503 0.220283 -1.000568
2009-11-20 09:36:23 51°14.307 2°55.158 18.2816 0.038503 0.220283 -1.000568
2009-11-20 09:36:28 51°14.316 2°55.142 18.2914 0.038503 0.220291 -1.000568
2009-11-20 09:36:33 51°14.324 2°55.127 18.2708 0.038709 0.221501 -1.000568
2009-11-20 09:36:38 51°14.333 2°55.111 18.2784 0.038606 0.220904 -1.000568
2009-11-20 09:36:43 51°14.342 2°55.096 18.2864 0.038503 0.220308 -1.000568
2009-11-20 09:36:48 51°14.351 2°55.081 18.2415 0.038606 0.220904 -1.000568
2009-11-20 09:36:53 51°14.36 2°55.066 18.27 0.038606 0.220904 -1.000568
2009-11-20 09:36:58 51°14.369 2°55.051 18.2279 0.038298 0.219102 -1.000568
2009-11-20 09:37:03 51°14.378 2°55.037 18.2475 0.038606 0.220896 -1.000568
2009-11-20 09:37:08 51°14.388 2°55.023 18.2494 0.038812 0.22211 -1.000568
2009-11-20 09:37:13 51°14.398 2°55.01 18.2184 0.0384 0.219719 -1.000568
2009-11-20 09:37:18 51°14.408 2°54.997 18.2249 0.038195 0.218514 -1.000568
2009-11-20 09:37:23 51°14.418 2°54.984 18.2184 0.038195 0.218514 -1.000568
2009-11-20 09:37:28 51°14.428 2°54.97 18.232 0.038092 0.21791 -1.000568
2009-11-20 09:37:33 51°14.438 2°54.956 18.1802 0.0384 0.219723 -1.000568
2009-11-20 09:37:38 51°14.448 2°54.941 18.0875 0.037474 0.214305 -1.000568
2009-11-20 09:37:42 51°14.456 2°54.929 18.1471 0.037783 0.216097 -1.000568
2009-11-20 09:37:48 51°14.467 2°54.91 18.1844 0.037577 0.214901 -1.000568
2009-11-20 09:37:53 51°14.477 2°54.893 18.1657 0.037577 0.214901 -1.000568
2009-11-20 09:37:58 51°14.486 2°54.874 18.1314 0.037063 0.211906 -1.000568
2009-11-20 09:38:03 51°14.494 2°54.855 18.0858 0.036754 0.210104 -1.000568
2009-11-20 09:38:08 51°14.501 2°54.835 18.0455 0.036548 0.208902 -1.000568
2009-11-20 09:38:13 51°14.509 2°54.814 18.0708 0.036445 0.208299 -1.000568
2009-11-20 09:38:18 51°14.517 2°54.793 18.0937 0.036651 0.209501 -1.000568
2009-11-20 09:38:23 51°14.525 2°54.772 18.0928 0.036651 0.209501 -1.000568
2009-11-20 09:38:28 51°14.533 2°54.751 18.0857 0.036651 0.209509 -1.000568
2009-11-20 09:38:33 51°14.541 2°54.73 18.1061 0.036651 0.209513 -1.000568
2009-11-20 09:38:38 51°14.55 2°54.708 18.1024 0.036445 0.208319 -1.000568
2009-11-20 09:38:43 51°14.557 2°54.687 18.1186 0.036342 0.207724 -1.000568
2009-11-20 09:38:48 51°14.566 2°54.665 18.1103 0.036754 0.210124 -1.000568
2009-11-20 09:38:53 51°14.574 2°54.643 18.0929 0.036754 0.210124 -1.000568
2009-11-20 09:38:58 51°14.582 2°54.621 18.0666 0.036342 0.207731 -1.000568
2009-11-20 09:39:03 51°14.59 2°54.6 18.0678 0.036239 0.207129 -1.000568
2009-11-20 09:39:08 51°14.598 2°54.578 18.0778 0.036239 0.207132 -1.000568
2009-11-20 09:39:13 51°14.606 2°54.556 18.0825 0.036239 0.207132 -1.000568
2009-11-20 09:39:18 51°14.614 2°54.534 18.0829 0.036342 0.207747 -1.000568
2009-11-20 09:39:23 51°14.623 2°54.512 18.1007 0.036342 0.207747 -1.000568
2009-11-20 09:39:28 51°14.631 2°54.49 18.1136 0.036445 0.208353 -1.000568
2009-11-20 09:39:33 51°14.638 2°54.468 18.0641 0.036034 0.205962 -1.000568
2009-11-20 09:39:38 51°14.646 2°54.445 18.0771 0.036034 0.205958 -1.000568
2009-11-20 09:39:43 51°14.653 2°54.423 18.0786 0.036034 0.205958 -0.965744
2009-11-20 09:39:48 51°14.661 2°54.4 18.0858 0.036136 0.20656 -1.000568
2009-11-20 09:39:53 51°14.668 2°54.378 18.0657 0.036136 0.20656 -1.000568
2009-11-20 09:39:58 51°14.675 2°54.355 18.0728 0.036239 0.207167 -1.000568
2009-11-20 09:40:03 51°14.683 2°54.332 18.0664 0.036651 0.209571 -1.000568
2009-11-20 09:40:08 51°14.69 2°54.31 18.0774 0.035931 0.205382 -1.000568
2009-11-20 09:40:13 51°14.697 2°54.287 18.0753 0.036034 0.205977 -1.000568
2009-11-20 09:40:18 51°14.704 2°54.264 18.0742 0.035931 0.205386 -1.000568
2009-11-20 09:40:23 51°14.71 2°54.241 18.0722 0.035931 0.205386 -1.000568
2009-11-20 09:40:28 51°14.717 2°54.217 18.086 0.036034 0.205984 -1.000568
2009-11-20 09:40:33 51°14.723 2°54.194 18.0548 0.036034 0.205992 -1.000568
2009-11-20 09:40:38 51°14.729 2°54.17 18.0332 0.035725 0.204196 -1.000568
2009-11-20 09:40:43 51°14.735 2°54.147 18.0398 0.035828 0.204795 -1.000568
2009-11-20 09:40:48 51°14.741 2°54.123 18.0476 0.035622 0.203597 -1.000568
2009-11-20 09:40:53 51°14.747 2°54.1 18.03 0.035622 0.203597 -1.000568
2009-11-20 09:40:58 51°14.753 2°54.076 18.0265 0.035828 0.204802 -1.000568
2009-11-20 09:41:02 51°14.758 2°54.057 18.032 0.035725 0.2042 -1.000568
2009-11-20 09:41:08 51°14.765 2°54.03 18.0409 0.035931 0.205408 -1.000568
2009-11-20 09:41:13 51°14.771 2°54.006 18.0544 0.035725 0.204219 -1.000568
2009-11-20 09:41:18 51°14.777 2°53.982 18.0279 0.035622 0.203616 -1.000568
2009-11-20 09:41:23 51°14.783 2°53.959 18.0529 0.035622 0.203616 -1.000568
2009-11-20 09:41:28 51°14.789 2°53.936 18.0423 0.035725 0.204215 -1.000568
2009-11-20 09:41:33 51°14.795 2°53.913 18.0477 0.035725 0.204219 -1.000568
2009-11-20 09:41:38 51°14.801 2°53.889 18.0057 0.035828 0.204817 -1.000568
2009-11-20 09:41:43 51°14.807 2°53.866 18.0269 0.035519 0.203025 -1.000568
2009-11-20 09:41:48 51°14.812 2°53.843 18.0331 0.035828 0.204829 -1.000568
2009-11-20 09:41:53 51°14.818 2°53.819 18.0334 0.035828 0.204829 -1.000568
2009-11-20 09:41:58 51°14.824 2°53.796 18.0124 0.035725 0.204241 -1.000568
2009-11-20 09:42:02 51°14.829 2°53.777 18.0209 0.035313 0.20184 -1.000568
2009-11-20 09:42:08 51°14.836 2°53.749 18.0179 0.035931 0.205443 -1.000568
2009-11-20 09:42:13 51°14.842 2°53.726 18.0236 0.035519 0.203044 -1.000568
2009-11-20 09:42:18 51°14.848 2°53.702 18.0251 0.035622 0.203646 -1.000568
2009-11-20 09:42:23 51°14.853 2°53.679 17.9969 0.035622 0.203646 -1.000568
2009-11-20 09:42:28 51°14.859 2°53.655 18.0153 0.035519 0.203044 -1.000568
2009-11-20 09:42:33 51°14.865 2°53.631 17.9975 0.035416 0.202449 -1.000568
2009-11-20 09:42:38 51°14.871 2°53.608 17.9798 0.035107 0.200654 -1.000568
2009-11-20 09:42:43 51°14.877 2°53.584 17.9852 0.035416 0.202449 -1.000568
2009-11-20 09:42:48 51°14.883 2°53.561 17.9956 0.035313 0.201854 -1.000568
2009-11-20 09:42:53 51°14.888 2°53.537 17.9731 0.035313 0.201854 -1.000568
2009-11-20 09:42:58 51°14.894 2°53.514 17.9909 0.03521 0.201264 -1.000568
2009-11-20 09:43:03 51°14.9 2°53.49 17.9825 0.035416 0.202464 -1.000568
2009-11-20 09:43:03 51°14.9 2°53.49 17.9825 0.035416 0.202464 -1.000568
2009-11-20 09:43:13 51°14.912 2°53.443 17.9686 0.035107 0.200673 -1.000568
2009-11-20 09:43:13 51°14.912 2°53.443 17.9686 0.035107 0.200673 -1.000568
2009-11-20 09:43:24 51°14.925 2°53.391 17.9506 0.035107 0.20068 -1.000568
2009-11-20 09:43:29 51°14.931 2°53.368 17.9491 0.035107 0.20068 -1.000568
2009-11-20 09:43:34 51°14.936 2°53.344 17.957 0.035107 0.20068 -1.000568
2009-11-20 09:43:39 51°14.942 2°53.321 17.9521 0.035004 0.200082 -1.000568
2009-11-20 09:43:39 51°14.942 2°53.321 17.9521 0.035004 0.200082 -1.000568
2009-11-20 09:43:52 51°14.958 2°53.26 17.9522 0.034799 0.198886 -1.000568
2009-11-20 09:43:52 51°14.958 2°53.26 17.9522 0.034799 0.198886 -1.000568
2009-11-20 09:44:03 51°14.97 2°53.208 17.968 0.035004 0.200086 -1.000568
2009-11-20 09:44:08 51°14.976 2°53.184 17.953 0.034799 0.198893 -1.000568
2009-11-20 09:44:13 51°14.982 2°53.16 17.9526 0.034799 0.198897 -1.000568
2009-11-20 09:44:18 51°14.988 2°53.136 17.9539 0.034696 0.198299 -1.000568
2009-11-20 09:44:22 51°14.992 2°53.117 17.9542 0.034696 0.198299 -1.000568
2009-11-20 09:44:28 51°14.999 2°53.088 17.9239 0.034799 0.1989 -1.000568
2009-11-20 09:44:33 51°15.005 2°53.064 17.9512 0.034696 0.198321 -1.000568
2009-11-20 09:44:38 51°15.011 2°53.041 17.9382 0.034593 0.197726 -1.000568
2009-11-20 09:44:43 51°15.017 2°53.017 17.9345 0.034593 0.19773 -1.000568
2009-11-20 09:44:48 51°15.022 2°52.993 17.9564 0.034799 0.19893 -1.000568
2009-11-20 09:44:53 51°15.028 2°52.969 17.9254 0.034799 0.19893 -1.000568
2009-11-20 09:44:58 51°15.034 2°52.946 17.9293 0.034799 0.198941 -1.000568
2009-11-20 09:45:03 51°15.04 2°52.922 17.9284 0.03449 0.197147 -1.000568
2009-11-20 09:45:08 51°15.046 2°52.898 17.9299 0.034902 0.199539 -1.000568
2009-11-20 09:45:13 51°15.052 2°52.874 17.9181 0.034593 0.197745 -1.000568
2009-11-20 09:45:18 51°15.058 2°52.851 17.9166 0.03449 0.197147 -1.000568
2009-11-20 09:45:23 51°15.064 2°52.827 17.9401 0.03449 0.197147 -1.000568
2009-11-20 09:45:28 51°15.07 2°52.803 17.917 0.034799 0.198944 -1.000568
2009-11-20 09:45:33 51°15.076 2°52.779 17.9183 0.03449 0.19715 -1.000568
2009-11-20 09:45:38 51°15.082 2°52.755 17.9273 0.034593 0.197756 -1.000568
2009-11-20 09:45:43 51°15.087 2°52.731 17.9228 0.034696 0.198361 -1.000568
2009-11-20 09:45:48 51°15.093 2°52.708 17.9171 0.03449 0.197168 -1.000568
2009-11-20 09:45:53 51°15.099 2°52.684 17.9271 0.03449 0.197168 -1.000568
2009-11-20 09:45:58 51°15.105 2°52.66 17.9312 0.034696 0.198372 -1.000568
2009-11-20 09:46:03 51°15.111 2°52.636 17.9337 0.03449 0.197176 -1.000568
2009-11-20 09:46:08 51°15.117 2°52.612 17.9331 0.034593 0.197777 -1.000568
2009-11-20 09:46:13 51°15.123 2°52.588 17.9406 0.03449 0.197183 -1.000568
2009-11-20 09:46:18 51°15.128 2°52.564 17.9498 0.034696 0.198379 -1.000568
2009-11-20 09:46:23 51°15.134 2°52.54 17.9483 0.034696 0.198379 -1.000568
2009-11-20 09:46:27 51°15.139 2°52.521 17.9345 0.03449 0.197183 -1.000568
2009-11-20 09:46:33 51°15.146 2°52.492 17.9327 0.034902 0.199583 -1.000568
2009-11-20 09:46:38 51°15.151 2°52.468 17.9089 0.034181 0.195404 -1.000568
2009-11-20 09:46:43 51°15.156 2°52.444 17.9157 0.034593 0.197796 -1.000568
2009-11-20 09:46:48 51°15.163 2°52.42 17.9154 0.034181 0.195407 -1.000568
2009-11-20 09:46:53 51°15.168 2°52.396 17.9149 0.034181 0.195407 -1.000568
2009-11-20 09:46:58 51°15.174 2°52.372 17.9144 0.034284 0.196012 -1.000568
2009-11-20 09:47:03 51°15.18 2°52.348 17.8695 0.033975 0.194219 -1.000568
2009-11-20 09:47:08 51°15.186 2°52.324 17.9071 0.033975 0.194226 -1.000568
2009-11-20 09:47:13 51°15.191 2°52.3 17.9091 0.034387 0.196625 -1.000568
2009-11-20 09:47:18 51°15.197 2°52.276 17.917 0.034181 0.195429 -1.000568
2009-11-20 09:47:23 51°15.203 2°52.252 17.8814 0.034181 0.195429 -1.000568
2009-11-20 09:47:28 51°15.209 2°52.228 17.9081 0.034284 0.196034 -1.000568
2009-11-20 09:47:33 51°15.215 2°52.204 17.9214 0.034284 0.196038 -1.000568
2009-11-20 09:47:38 51°15.221 2°52.18 17.8996 0.034078 0.194842 -1.000568
2009-11-20 09:47:43 51°15.226 2°52.156 17.9078 0.034078 0.194845 -1.000568
2009-11-20 09:47:48 51°15.232 2°52.131 17.903 0.034181 0.195447 -1.000568
2009-11-20 09:47:53 51°15.238 2°52.107 17.8788 0.034181 0.195447 -1.000568
2009-11-20 09:47:58 51°15.244 2°52.083 17.9068 0.034078 0.194849 -1.000568
2009-11-20 09:48:03 51°15.25 2°52.059 17.9186 0.034902 0.199639 -1.000568
2009-11-20 09:48:08 51°15.255 2°52.035 17.8515 0.033975 0.194266 -1.000568
2009-11-20 09:48:13 51°15.259 2°52.01 17.8768 0.034387 0.19665 -1.000568
2009-11-20 09:48:18 51°15.264 2°51.986 17.9232 0.033872 0.193668 -1.000568
2009-11-20 09:48:23 51°15.268 2°51.961 17.8929 0.033872 0.193668 -1.000568
2009-11-20 09:48:28 51°15.27 2°51.936 17.9166 0.03377 0.193077 -1.000568
2009-11-20 09:48:33 51°15.273 2°51.91 17.9488 0.03377 0.193067 -1.000568
2009-11-20 09:48:38 51°15.275 2°51.885 17.9028 0.033667 0.192472 -1.000568
2009-11-20 09:48:42 51°15.276 2°51.864 17.9219 0.033667 0.192465 -1.000568
2009-11-20 09:48:48 51°15.278 2°51.834 17.8349 0.033667 0.192465 -1.000568
2009-11-20 09:48:53 51°15.279 2°51.808 17.8941 0.033667 0.192465 -1.000568
2009-11-20 09:48:58 51°15.28 2°51.782 17.8401 0.033667 0.192465 -1.000568
2009-11-20 09:49:03 51°15.28 2°51.756 17.8816 0.033667 0.192472 -1.000568
2009-11-20 09:49:08 51°15.281 2°51.73 17.8643 0.03377 0.193074 -1.000568
2009-11-20 09:49:13 51°15.281 2°51.704 17.875 0.033667 0.192487 -1.000568
2009-11-20 09:49:18 51°15.281 2°51.678 17.8582 0.033667 0.19249 -1.000568
2009-11-20 09:49:23 51°15.28 2°51.651 17.8891 0.033667 0.19249 -1.000568
2009-11-20 09:49:28 51°15.279 2°51.625 17.893 0.033667 0.192494 -1.000568
2009-11-20 09:49:33 51°15.279 2°51.599 17.8965 0.033667 0.192494 -1.000568
2009-11-20 09:49:38 51°15.277 2°51.573 17.892 0.033564 0.1919 -1.000568
2009-11-20 09:49:43 51°15.276 2°51.547 17.8628 0.033564 0.191903 -1.000568
2009-11-20 09:49:48 51°15.275 2°51.52 17.8737 0.033564 0.191907 -1.000568
2009-11-20 09:49:53 51°15.274 2°51.494 17.8672 0.033564 0.191907 -1.000568
2009-11-20 09:49:58 51°15.272 2°51.467 17.8595 0.033564 0.19191 -1.000568
2009-11-20 09:50:03 51°15.271 2°51.441 17.876 0.033564 0.191917 -1.000568
2009-11-20 09:50:08 51°15.269 2°51.415 17.8614 0.033564 0.191917 -1.000568
2009-11-20 09:50:13 51°15.268 2°51.388 17.8629 0.033564 0.191925 -1.000568
2009-11-20 09:50:18 51°15.267 2°51.362 17.8539 0.033564 0.191928 -1.000568
2009-11-20 09:50:23 51°15.266 2°51.334 17.8792 0.033564 0.191928 -1.000568
2009-11-20 09:50:28 51°15.265 2°51.308 17.8416 0.033564 0.191935 -1.000568
2009-11-20 09:50:33 51°15.263 2°51.281 17.8452 0.033461 0.191341 -1.000568
2009-11-20 09:50:38 51°15.262 2°51.255 17.8771 0.033461 0.191309 -1.000568
2009-11-20 09:50:42 51°15.261 2°51.233 17.8737 0.033461 0.191299 -1.000568
2009-11-20 09:50:48 51°15.26 2°51.201 17.845 0.033461 0.191302 -1.000568
2009-11-20 09:50:53 51°15.259 2°51.175 17.8446 0.033461 0.191302 -1.000568
2009-11-20 09:50:58 51°15.258 2°51.148 17.8671 0.033461 0.191313 -1.000568
2009-11-20 09:51:03 51°15.257 2°51.122 17.8532 0.033461 0.191327 -1.000568
2009-11-20 09:51:08 51°15.255 2°51.095 17.8305 0.033461 0.19133 -1.000568
2009-11-20 09:51:13 51°15.254 2°51.069 17.8512 0.033461 0.19133 -1.000568
2009-11-20 09:51:18 51°15.253 2°51.042 17.8252 0.033461 0.191327 -1.000568
2009-11-20 09:51:23 51°15.252 2°51.015 17.852 0.033461 0.191327 -1.000568
2009-11-20 09:51:28 51°15.251 2°50.989 17.832 0.033461 0.191327 -1.000568
2009-11-20 09:51:33 51°15.25 2°50.962 17.8529 0.033461 0.19133 -1.000568
2009-11-20 09:51:38 51°15.249 2°50.935 17.8558 0.033358 0.190736 -1.000568
2009-11-20 09:51:43 51°15.248 2°50.909 17.8569 0.033358 0.190747 -1.000568
2009-11-20 09:51:48 51°15.248 2°50.882 17.8291 0.033358 0.190751 -1.000568
2009-11-20 09:51:53 51°15.246 2°50.856 17.8708 0.033358 0.190751 -1.000568
2009-11-20 09:51:58 51°15.245 2°50.829 17.867 0.033358 0.190744 -1.000568
2009-11-20 09:52:03 51°15.244 2°50.803 17.8656 0.033358 0.190754 -1.000568
2009-11-20 09:52:08 51°15.242 2°50.776 17.8069 0.033358 0.190754 -1.000568
2009-11-20 09:52:13 51°15.24 2°50.75 17.8258 0.033358 0.190768 -1.000568
2009-11-20 09:52:18 51°15.238 2°50.723 17.8252 0.033358 0.190761 -1.000568
2009-11-20 09:52:23 51°15.237 2°50.697 17.8004 0.033358 0.190761 -1.000568
2009-11-20 09:52:28 51°15.235 2°50.67 17.8235 0.033358 0.190765 -1.000568
2009-11-20 09:52:33 51°15.232 2°50.644 17.8653 0.033358 0.190775 -1.000568
2009-11-20 09:52:38 51°15.23 2°50.618 17.8639 0.033358 0.190786 -1.000568
2009-11-20 09:52:42 51°15.228 2°50.597 17.8129 0.033358 0.190789 -1.000568
2009-11-20 09:52:48 51°15.226 2°50.565 17.7981 0.033358 0.190796 -1.000568
2009-11-20 09:52:53 51°15.223 2°50.54 17.8327 0.033358 0.190796 -1.000568
2009-11-20 09:52:58 51°15.221 2°50.513 17.8006 0.033255 0.190209 -1.000568
2009-11-20 09:53:03 51°15.219 2°50.487 17.8293 0.033255 0.190234 -1.000568
2009-11-20 09:53:07 51°15.217 2°50.466 17.7936 0.033255 0.190241 -1.000568
2009-11-20 09:53:13 51°15.214 2°50.434 17.8211 0.033255 0.190255 -1.000568
2009-11-20 09:53:18 51°15.212 2°50.408 17.7996 0.033255 0.190269 -1.000568
2009-11-20 09:53:23 51°15.209 2°50.382 17.7944 0.033255 0.190269 -1.000568
2009-11-20 09:53:28 51°15.207 2°50.355 17.802 0.033255 0.190269 -1.000568
2009-11-20 09:53:33 51°15.205 2°50.329 17.7943 0.033255 0.190294 -1.000568
2009-11-20 09:53:38 51°15.202 2°50.302 17.8069 0.033255 0.190304 -1.000568
2009-11-20 09:53:43 51°15.2 2°50.276 17.8115 0.033255 0.190311 -1.000568
2009-11-20 09:53:48 51°15.198 2°50.249 17.7966 0.033255 0.190318 -1.000568
2009-11-20 09:53:53 51°15.195 2°50.223 17.8088 0.033255 0.190318 -1.000568
2009-11-20 09:53:58 51°15.193 2°50.196 17.8503 0.033255 0.190311 -1.000568
2009-11-20 09:54:03 51°15.191 2°50.169 17.8074 0.033255 0.190315 -1.000568
2009-11-20 09:54:08 51°15.189 2°50.143 17.7812 0.033255 0.190311 -1.000568
2009-11-20 09:54:13 51°15.186 2°50.116 17.8167 0.033255 0.190346 -1.000568
2009-11-20 09:54:18 51°15.184 2°50.09 17.8077 0.033255 0.190378 -1.000568
2009-11-20 09:54:23 51°15.182 2°50.063 17.8124 0.033255 0.190378 -1.000568
2009-11-20 09:54:28 51°15.18 2°50.037 17.8381 0.033255 0.190381 -1.000568
2009-11-20 09:54:33 51°15.177 2°50.01 17.8328 0.033255 0.190388 -1.000568
2009-11-20 09:54:38 51°15.175 2°49.984 17.8101 0.033255 0.190392 -1.000568
2009-11-20 09:54:43 51°15.173 2°49.957 17.8081 0.033255 0.190371 -1.000568
2009-11-20 09:54:48 51°15.171 2°49.93 17.7867 0.033255 0.190403 -1.000568
2009-11-20 09:54:53 51°15.169 2°49.904 17.8026 0.033255 0.190403 -1.000568
2009-11-20 09:54:58 51°15.167 2°49.877 17.8075 0.033255 0.190427 -1.000568
2009-11-20 09:55:02 51°15.165 2°49.856 17.8071 0.033255 0.190473 -1.000568
2009-11-20 09:55:08 51°15.163 2°49.824 17.8073 0.033152 0.189871 -1.000568
2009-11-20 09:55:13 51°15.161 2°49.797 17.7963 0.033152 0.189871 -1.000568
2009-11-20 09:55:18 51°15.159 2°49.771 17.7973 0.033152 0.18985 -1.000568
2009-11-20 09:55:23 51°15.156 2°49.744 17.7758 0.033152 0.18985 -1.000568
2009-11-20 09:55:28 51°15.154 2°49.718 17.8002 0.033152 0.18986 -1.035392
2009-11-20 09:55:33 51°15.152 2°49.691 17.8127 0.033152 0.189906 -1.000568
2009-11-20 09:55:38 51°15.15 2°49.665 17.8166 0.033152 0.189934 -1.000568
2009-11-20 09:55:43 51°15.148 2°49.639 17.7986 0.033152 0.18992 -1.000568
2009-11-20 09:55:48 51°15.146 2°49.612 17.8153 0.033152 0.189874 -1.000568
2009-11-20 09:55:53 51°15.144 2°49.586 17.8163 0.033152 0.189874 -1.000568
2009-11-20 09:55:58 51°15.142 2°49.559 17.7781 0.033152 0.189899 -1.000568
2009-11-20 09:56:03 51°15.14 2°49.533 17.826 0.033152 0.189896 -1.000568
2009-11-20 09:56:08 51°15.138 2°49.506 17.8069 0.033152 0.189882 -1.000568
2009-11-20 09:56:13 51°15.136 2°49.48 17.8114 0.033152 0.189885 -1.000568
2009-11-20 09:56:18 51°15.134 2°49.453 17.8448 0.033152 0.189874 -1.000568
2009-11-20 09:56:23 51°15.132 2°49.427 17.827 0.033152 0.189874 -1.000568
2009-11-20 09:56:28 51°15.13 2°49.4 17.8071 0.033152 0.189882 -1.000568
2009-11-20 09:56:33 51°15.128 2°49.374 17.8174 0.033152 0.189882 -1.000568
2009-11-20 09:56:38 51°15.126 2°49.347 17.8062 0.033152 0.189885 -1.000568
2009-11-20 09:56:42 51°15.124 2°49.326 17.8011 0.033152 0.189906 -1.000568
2009-11-20 09:56:48 51°15.122 2°49.294 17.8062 0.033152 0.189903 -1.000568
2009-11-20 09:56:53 51°15.12 2°49.268 17.7817 0.033152 0.189903 -1.000568
2009-11-20 09:56:58 51°15.118 2°49.242 17.778 0.033152 0.189899 -1.000568
2009-11-20 09:57:03 51°15.116 2°49.215 17.7806 0.033152 0.189899 -1.000568
2009-11-20 09:57:08 51°15.114 2°49.189 17.7883 0.033152 0.189945 -1.000568
2009-11-20 09:57:13 51°15.112 2°49.162 17.8055 0.033152 0.190004 -1.000568
2009-11-20 09:57:18 51°15.11 2°49.136 17.8096 0.033152 0.190004 -1.000568
2009-11-20 09:57:23 51°15.108 2°49.11 17.8175 0.033152 0.190004 -1.000568
2009-11-20 09:57:27 51°15.106 2°49.089 17.8346 0.033152 0.190008 -1.000568
2009-11-20 09:57:33 51°15.104 2°49.058 17.8127 0.033152 0.189997 -1.000568
2009-11-20 09:57:38 51°15.102 2°49.031 17.7964 0.033152 0.189973 -1.000568
2009-11-20 09:57:43 51°15.1 2°49.005 17.7902 0.033152 0.189969 -1.035392
2009-11-20 09:57:48 51°15.098 2°48.979 17.8325 0.033152 0.189945 -1.000568
2009-11-20 09:57:53 51°15.096 2°48.953 17.7938 0.033152 0.189945 -1.000568
2009-11-20 09:57:58 51°15.094 2°48.927 17.7862 0.033049 0.189343 -1.000568
2009-11-20 09:58:03 51°15.091 2°48.9 17.8202 0.033152 0.189952 -1.000568
2009-11-20 09:58:08 51°15.09 2°48.874 17.8148 0.033049 0.189346 -1.000568
2009-11-20 09:58:13 51°15.088 2°48.848 17.7996 0.033049 0.189367 -1.000568
2009-11-20 09:58:18 51°15.086 2°48.822 17.7924 0.033049 0.189395 -1.000568
2009-11-20 09:58:22 51°15.084 2°48.801 17.8085 0.033049 0.189395 -1.000568
2009-11-20 09:58:28 51°15.082 2°48.769 17.792 0.033049 0.189381 -1.000568
2009-11-20 09:58:33 51°15.08 2°48.743 17.8278 0.033049 0.189392 -1.000568
2009-11-20 09:58:38 51°15.078 2°48.717 17.7751 0.033049 0.189469 -1.000568
2009-11-20 09:58:43 51°15.076 2°48.691 17.8022 0.033049 0.189465 -1.000568
2009-11-20 09:58:48 51°15.074 2°48.665 17.8326 0.033049 0.189448 -1.000568
2009-11-20 09:58:53 51°15.072 2°48.638 17.8468 0.033049 0.189448 -1.000568
2009-11-20 09:58:58 51°15.07 2°48.612 17.7885 0.033049 0.189476 -1.000568
2009-11-20 09:59:02 51°15.068 2°48.591 17.7843 0.033049 0.189455 -1.000568
2009-11-20 09:59:08 51°15.066 2°48.559 17.789 0.033049 0.189427 -1.000568
2009-11-20 09:59:13 51°15.064 2°48.533 17.8094 0.033049 0.189448 -1.000568
2009-11-20 09:59:18 51°15.062 2°48.507 17.8058 0.033049 0.1895 -1.000568
2009-11-20 09:59:23 51°15.06 2°48.481 17.8112 0.033049 0.1895 -1.000568
2009-11-20 09:59:28 51°15.058 2°48.455 17.806 0.033049 0.189493 -1.000568
2009-11-20 09:59:33 51°15.056 2°48.429 17.8351 0.033049 0.189518 -1.035392
2009-11-20 09:59:38 51°15.054 2°48.403 17.8016 0.033049 0.189567 -1.000568
2009-11-20 09:59:43 51°15.052 2°48.377 17.8076 0.033049 0.189518 -1.000568
2009-11-20 09:59:48 51°15.05 2°48.35 17.7831 0.033049 0.189483 -1.000568
2009-11-20 09:59:53 51°15.048 2°48.324 17.8089 0.033049 0.189483 -1.000568
2009-11-20 09:59:58 51°15.046 2°48.298 17.823 0.033049 0.189535 -1.000568
2009-11-20 10:00:03 51°15.044 2°48.272 17.8014 0.033049 0.189532 -1.000568
2009-11-20 10:00:08 51°15.042 2°48.246 17.801 0.033049 0.189563 -1.000568
2009-11-20 10:00:13 51°15.04 2°48.219 17.8286 0.033049 0.189535 -1.000568
2009-11-20 10:00:18 51°15.038 2°48.193 17.8189 0.033049 0.189539 -1.000568
2009-11-20 10:00:22 51°15.037 2°48.172 17.8138 0.033049 0.189539 -1.000568
2009-11-20 10:00:28 51°15.034 2°48.141 17.8178 0.033049 0.189535 -1.000568
2009-11-20 10:00:33 51°15.032 2°48.115 17.8521 0.033049 0.189518 -1.000568
2009-11-20 10:00:38 51°15.03 2°48.089 17.8099 0.033049 0.189518 -1.000568
2009-11-20 10:00:43 51°15.028 2°48.063 17.8082 0.033049 0.189486 -1.000568
2009-11-20 10:00:48 51°15.027 2°48.037 17.8104 0.033049 0.189486 -1.000568
2009-11-20 10:00:53 51°15.024 2°48.011 17.8058 0.033049 0.189486 -1.000568
2009-11-20 10:00:58 51°15.022 2°47.985 17.825 0.033049 0.189507 -1.000568
2009-11-20 10:01:03 51°15.021 2°47.958 17.8031 0.033049 0.189556 -1.000568
2009-11-20 10:01:08 51°15.018 2°47.932 17.8195 0.033049 0.189514 -1.000568
2009-11-20 10:01:13 51°15.017 2°47.906 17.7939 0.033049 0.189567 -1.000568
2009-11-20 10:01:18 51°15.015 2°47.88 17.8211 0.033049 0.189567 -1.000568
2009-11-20 10:01:23 51°15.013 2°47.854 17.792 0.033049 0.189567 -1.000568
2009-11-20 10:01:28 51°15.011 2°47.828 17.8044 0.033049 0.189563 -1.000568
2009-11-20 10:01:33 51°15.009 2°47.802 17.8257 0.033049 0.189553 -1.000568
2009-11-20 10:01:38 51°15.007 2°47.776 17.8151 0.033049 0.189606 -1.000568
2009-11-20 10:01:42 51°15.005 2°47.755 17.8091 0.033049 0.189588 -1.000568
2009-11-20 10:01:48 51°15.003 2°47.724 17.8025 0.033049 0.18957 -1.000568
2009-11-20 10:01:53 51°15.001 2°47.698 17.8086 0.033049 0.18957 -1.000568
2009-11-20 10:01:58 51°14.999 2°47.672 17.8341 0.033049 0.189578 -1.000568
2009-11-20 10:02:03 51°14.997 2°47.646 17.8372 0.033049 0.189637 -1.000568
2009-11-20 10:02:08 51°14.995 2°47.62 17.8051 0.032946 0.189062 -1.000568
2009-11-20 10:02:13 51°14.993 2°47.595 17.8043 0.032946 0.189024 -1.000568
2009-11-20 10:02:18 51°14.991 2°47.568 17.8301 0.032946 0.189052 -1.000568
2009-11-20 10:02:23 51°14.99 2°47.543 17.8166 0.032946 0.189052 -1.000568
2009-11-20 10:02:28 51°14.988 2°47.517 17.8057 0.032946 0.189041 -1.000568
2009-11-20 10:02:33 51°14.986 2°47.491 17.7985 0.032946 0.189038 -1.000568
2009-11-20 10:02:38 51°14.984 2°47.465 17.8035 0.032946 0.189031 -1.035392
2009-11-20 10:02:43 51°14.982 2°47.439 17.8047 0.032946 0.189031 -1.000568
2009-11-20 10:02:48 51°14.981 2°47.413 17.7986 0.032946 0.189041 -1.000568
2009-11-20 10:02:53 51°14.979 2°47.387 17.7986 0.032946 0.189041 -1.000568
2009-11-20 10:02:58 51°14.977 2°47.362 17.8288 0.032946 0.189076 -1.000568
2009-11-20 10:03:03 51°14.975 2°47.336 17.8088 0.032946 0.189062 -1.000568
2009-11-20 10:03:08 51°14.973 2°47.31 17.7812 0.032946 0.189013 -1.000568
2009-11-20 10:03:13 51°14.971 2°47.285 17.7775 0.032946 0.189017 -1.000568
2009-11-20 10:03:18 51°14.97 2°47.259 17.7926 0.032946 0.189052 -1.000568
2009-11-20 10:03:23 51°14.968 2°47.233 17.8188 0.032946 0.189052 -1.000568
2009-11-20 10:03:28 51°14.966 2°47.208 17.8203 0.032946 0.189118 -1.000568
2009-11-20 10:03:33 51°14.964 2°47.182 17.807 0.032946 0.189094 -1.000568
2009-11-20 10:03:38 51°14.962 2°47.157 17.8367 0.032946 0.18908 -1.000568
2009-11-20 10:03:42 51°14.961 2°47.136 17.8243 0.032946 0.189129 -1.000568
2009-11-20 10:03:48 51°14.958 2°47.105 17.8247 0.032946 0.189115 -1.000568
2009-11-20 10:03:53 51°14.956 2°47.08 17.8048 0.032946 0.189115 -1.000568
2009-11-20 10:03:58 51°14.954 2°47.054 17.8018 0.032946 0.189171 -1.000568
2009-11-20 10:04:02 51°14.953 2°47.034 17.8281 0.032946 0.189174 -1.000568
2009-11-20 10:04:08 51°14.95 2°47.003 17.8613 0.032946 0.189171 -1.000568
2009-11-20 10:04:13 51°14.949 2°46.978 17.7838 0.032946 0.189181 -1.000568
2009-11-20 10:04:18 51°14.947 2°46.952 17.8217 0.032946 0.18916 -1.000568
2009-11-20 10:04:22 51°14.945 2°46.932 17.7952 0.032946 0.18916 -1.000568
2009-11-20 10:04:28 51°14.943 2°46.901 17.8287 0.032946 0.189167 -1.000568
2009-11-20 10:04:33 51°14.941 2°46.876 17.7916 0.032946 0.189199 -1.000568
2009-11-20 10:04:38 51°14.94 2°46.85 17.813 0.032946 0.189202 -1.000568
2009-11-20 10:04:43 51°14.938 2°46.825 17.806 0.032946 0.189153 -1.000568
2009-11-20 10:04:48 51°14.936 2°46.8 17.8531 0.032946 0.189143 -1.000568
2009-11-20 10:04:53 51°14.934 2°46.774 17.8274 0.032946 0.189143 -1.000568
2009-11-20 10:04:58 51°14.931 2°46.749 17.8186 0.032946 0.189199 -1.000568
2009-11-20 10:05:03 51°14.928 2°46.724 17.8647 0.032946 0.189153 -1.000568
2009-11-20 10:05:08 51°14.926 2°46.698 17.7854 0.032946 0.189185 -1.000568
2009-11-20 10:05:13 51°14.922 2°46.673 17.84 0.032946 0.189143 -1.000568
2009-11-20 10:05:18 51°14.919 2°46.648 17.8495 0.032946 0.189181 -1.000568
2009-11-20 10:05:23 51°14.916 2°46.623 17.8917 0.032946 0.189181 -1.000568
2009-11-20 10:05:28 51°14.913 2°46.598 17.8806 0.032946 0.189178 -1.000568
2009-11-20 10:05:33 51°14.909 2°46.573 17.8911 0.032946 0.189157 -1.000568
2009-11-20 10:05:38 51°14.905 2°46.548 17.8975 0.032946 0.189153 -1.000568
2009-11-20 10:05:42 51°14.902 2°46.528 17.8846 0.032946 0.189181 -1.000568
2009-11-20 10:05:48 51°14.897 2°46.498 17.8466 0.032946 0.189185 -1.000568
2009-11-20 10:05:53 51°14.892 2°46.473 17.8247 0.032946 0.189185 -1.000568
2009-11-20 10:05:58 51°14.888 2°46.448 17.8113 0.032946 0.189202 -1.035392
2009-11-20 10:06:03 51°14.883 2°46.424 17.8078 0.032946 0.18921 -1.000568
2009-11-20 10:06:08 51°14.879 2°46.399 17.7916 0.032946 0.189245 -1.035392
2009-11-20 10:06:13 51°14.874 2°46.375 17.8388 0.032946 0.189255 -1.000568
2009-11-20 10:06:18 51°14.869 2°46.35 17.844 0.032946 0.189269 -1.035392
2009-11-20 10:06:22 51°14.865 2°46.33 17.8275 0.032946 0.189269 -1.035392
2009-11-20 10:06:28 51°14.86 2°46.301 17.8075 0.032946 0.189238 -1.000568
2009-11-20 10:06:33 51°14.855 2°46.276 17.8578 0.032946 0.189231 -1.000568
2009-11-20 10:06:38 51°14.851 2°46.251 17.8737 0.032946 0.189273 -1.000568
2009-11-20 10:06:43 51°14.846 2°46.227 17.8381 0.032946 0.189287 -1.000568
2009-11-20 10:06:48 51°14.841 2°46.202 17.8294 0.032946 0.189262 -1.000568
2009-11-20 10:06:53 51°14.837 2°46.177 17.8224 0.032946 0.189262 -1.000568
2009-11-20 10:06:58 51°14.832 2°46.153 17.8427 0.032946 0.189262 -1.000568
2009-11-20 10:07:02 51°14.828 2°46.133 17.8139 0.032946 0.18929 -1.000568
2009-11-20 10:07:08 51°14.822 2°46.103 17.827 0.032946 0.189262 -1.000568
2009-11-20 10:07:13 51°14.818 2°46.078 17.8322 0.032946 0.189266 -1.000568
2009-11-20 10:07:18 51°14.813 2°46.054 17.8758 0.032946 0.189255 -1.000568
2009-11-20 10:07:23 51°14.809 2°46.029 17.7941 0.032946 0.189255 -1.000568
2009-11-20 10:07:28 51°14.804 2°46.004 17.8181 0.032946 0.189238 -1.035392
2009-11-20 10:07:33 51°14.799 2°45.979 17.815 0.032946 0.189255 -1.000568
2009-11-20 10:07:38 51°14.794 2°45.954 17.8445 0.032946 0.189276 -1.000568
2009-11-20 10:07:42 51°14.791 2°45.935 17.8732 0.032946 0.189325 -1.000568
2009-11-20 10:07:48 51°14.785 2°45.905 17.8867 0.032946 0.18934 -1.000568
2009-11-20 10:07:53 51°14.78 2°45.88 17.8173 0.032946 0.18934 -1.000568
2009-11-20 10:07:58 51°14.776 2°45.855 17.8581 0.032843 0.188732 -1.000568
2009-11-20 10:08:03 51°14.771 2°45.83 17.8266 0.032843 0.188743 -1.000568
2009-11-20 10:08:08 51°14.766 2°45.805 17.7978 0.032843 0.188725 -1.035392
2009-11-20 10:08:13 51°14.762 2°45.78 17.8183 0.032843 0.188718 -1.000568
2009-11-20 10:08:18 51°14.757 2°45.755 17.854 0.032843 0.188736 -1.000568
2009-11-20 10:08:23 51°14.752 2°45.73 17.8257 0.032843 0.188736 -1.000568
2009-11-20 10:08:28 51°14.748 2°45.705 17.8353 0.032843 0.188757 -1.000568
2009-11-20 10:08:33 51°14.743 2°45.68 17.8673 0.032843 0.188739 -1.000568
2009-11-20 10:08:38 51°14.738 2°45.656 17.8497 0.032843 0.188736 -1.000568
2009-11-20 10:08:42 51°14.735 2°45.636 17.8531 0.032843 0.188774 -1.000568
2009-11-20 10:08:48 51°14.728 2°45.606 17.8947 0.032843 0.188746 -1.000568
2009-11-20 10:08:53 51°14.723 2°45.582 17.9121 0.032843 0.188746 -1.000568
2009-11-20 10:08:58 51°14.717 2°45.558 17.8087 0.032843 0.188767 -1.000568
2009-11-20 10:09:03 51°14.711 2°45.533 17.8221 0.032843 0.188774 -1.035392
2009-11-20 10:09:08 51°14.706 2°45.509 17.8279 0.032843 0.188802 -1.035392
2009-11-20 10:09:13 51°14.7 2°45.485 17.8192 0.032843 0.188855 -1.000568
2009-11-20 10:09:18 51°14.694 2°45.461 17.8241 0.032843 0.188862 -1.035392
2009-11-20 10:09:23 51°14.688 2°45.436 17.8631 0.032843 0.188862 -1.035392
2009-11-20 10:09:28 51°14.683 2°45.412 17.8292 0.032843 0.188827 -1.000568
2009-11-20 10:09:33 51°14.676 2°45.388 17.8555 0.032843 0.188771 -1.000568
2009-11-20 10:09:38 51°14.67 2°45.364 17.8353 0.032843 0.188813 -1.035392
2009-11-20 10:09:43 51°14.664 2°45.341 17.8734 0.032843 0.188809 -1.000568
2009-11-20 10:09:48 51°14.657 2°45.317 17.8185 0.032843 0.188827 -1.035392
2009-11-20 10:09:53 51°14.65 2°45.294 17.8315 0.032843 0.188827 -1.035392
2009-11-20 10:09:58 51°14.644 2°45.27 17.872 0.032843 0.18876 -1.000568
2009-11-20 10:10:03 51°14.637 2°45.247 17.8366 0.032843 0.188788 -1.000568
2009-11-20 10:10:08 51°14.629 2°45.223 17.8308 0.032843 0.188785 -1.035392
2009-11-20 10:10:13 51°14.622 2°45.2 17.8192 0.032843 0.188795 -1.000568
2009-11-20 10:10:18 51°14.615 2°45.177 17.8449 0.032843 0.18883 -1.000568
2009-11-20 10:10:23 51°14.608 2°45.153 17.8736 0.032843 0.18883 -1.000568
2009-11-20 10:10:28 51°14.601 2°45.13 17.8535 0.032843 0.18883 -1.000568
2009-11-20 10:10:33 51°14.594 2°45.107 17.8853 0.032843 0.188813 -1.035392
2009-11-20 10:10:38 51°14.586 2°45.083 17.9 0.032843 0.188795 -1.035392
2009-11-20 10:10:42 51°14.581 2°45.065 17.8272 0.032843 0.188792 -1.000568
2009-11-20 10:10:48 51°14.572 2°45.037 17.8262 0.032843 0.18882 -1.000568
2009-11-20 10:10:53 51°14.565 2°45.013 17.8639 0.032843 0.18882 -1.000568
2009-11-20 10:10:58 51°14.557 2°44.99 17.8463 0.032843 0.188876 -1.035392
2009-11-20 10:11:03 51°14.551 2°44.967 17.8775 0.032843 0.188883 -1.000568
2009-11-20 10:11:08 51°14.543 2°44.943 17.9113 0.032843 0.188869 -1.000568
2009-11-20 10:11:13 51°14.536 2°44.92 17.8801 0.032843 0.188883 -1.000568
2009-11-20 10:11:18 51°14.528 2°44.898 17.839 0.032843 0.188883 -1.000568
2009-11-20 10:11:23 51°14.52 2°44.876 17.8785 0.032843 0.188883 -1.000568
2009-11-20 10:11:28 51°14.511 2°44.854 17.8323 0.032843 0.188862 -1.000568
2009-11-20 10:11:33 51°14.502 2°44.832 17.8563 0.032843 0.188879 -1.000568
2009-11-20 10:11:38 51°14.493 2°44.811 17.8853 0.032843 0.188865 -1.000568
2009-11-20 10:11:43 51°14.484 2°44.79 17.9199 0.032843 0.188925 -1.000568
2009-11-20 10:11:48 51°14.475 2°44.769 17.9476 0.032843 0.188893 -1.000568
2009-11-20 10:11:53 51°14.465 2°44.748 17.9629 0.032843 0.188893 -1.000568
2009-11-20 10:11:58 51°14.455 2°44.727 17.9622 0.032843 0.188872 -1.000568
2009-11-20 10:12:02 51°14.448 2°44.711 17.8201 0.032843 0.188886 -1.000568
2009-11-20 10:12:08 51°14.436 2°44.685 17.8589 0.032843 0.188886 -1.035392
2009-11-20 10:12:13 51°14.426 2°44.664 17.877 0.032843 0.188876 -1.000568
2009-11-20 10:12:18 51°14.416 2°44.644 17.8304 0.032843 0.188893 -1.000568
2009-11-20 10:12:23 51°14.406 2°44.623 17.8719 0.032843 0.188893 -1.000568
2009-11-20 10:12:28 51°14.397 2°44.602 17.8811 0.032843 0.188932 -1.000568
2009-11-20 10:12:33 51°14.387 2°44.582 17.8911 0.032843 0.188946 -1.035392
2009-11-20 10:12:38 51°14.377 2°44.561 17.9176 0.032843 0.188946 -1.000568
2009-11-20 10:12:42 51°14.369 2°44.544 17.8761 0.032843 0.188964 -1.000568
2009-11-20 10:12:48 51°14.357 2°44.52 17.8752 0.032843 0.188932 -1.035392
2009-11-20 10:12:53 51°14.347 2°44.499 17.8584 0.032843 0.188932 -1.035392
2009-11-20 10:12:58 51°14.337 2°44.478 17.8403 0.032843 0.188932 -1.000568
2009-11-20 10:13:02 51°14.329 2°44.461 17.8676 0.032843 0.188992 -1.000568
2009-11-20 10:13:08 51°14.317 2°44.436 17.8595 0.032843 0.188995 -1.000568
2009-11-20 10:13:13 51°14.308 2°44.415 17.8973 0.032843 0.188967 -1.000568
2009-11-20 10:13:18 51°14.298 2°44.394 17.8924 0.032843 0.188985 -1.000568
2009-11-20 10:13:23 51°14.288 2°44.373 17.8392 0.032843 0.188985 -1.000568
2009-11-20 10:13:28 51°14.279 2°44.352 17.8651 0.032843 0.188978 -1.000568
2009-11-20 10:13:33 51°14.269 2°44.332 17.8281 0.032843 0.188992 -1.000568
2009-11-20 10:13:38 51°14.259 2°44.311 17.8467 0.032843 0.189016 -1.000568
2009-11-20 10:13:43 51°14.25 2°44.29 17.8434 0.032843 0.189006 -1.000568
2009-11-20 10:13:48 51°14.24 2°44.269 17.843 0.032843 0.189013 -1.035392
2009-11-20 10:13:53 51°14.23 2°44.248 17.8357 0.032843 0.189013 -1.035392
2009-11-20 10:13:58 51°14.221 2°44.227 17.8574 0.032843 0.189023 -1.035392
2009-11-20 10:14:03 51°14.211 2°44.207 17.884 0.032843 0.189044 -1.035392
2009-11-20 10:14:08 51°14.201 2°44.185 17.8471 0.032843 0.18903 -1.000568
2009-11-20 10:14:13 51°14.192 2°44.164 17.8487 0.032843 0.189002 -1.035392
2009-11-20 10:14:18 51°14.182 2°44.143 17.87 0.032843 0.189037 -1.000568
2009-11-20 10:14:23 51°14.172 2°44.123 17.8765 0.032843 0.189037 -1.000568
2009-11-20 10:14:28 51°14.163 2°44.101 17.8372 0.032843 0.189044 -1.000568
2009-11-20 10:14:33 51°14.153 2°44.08 17.8322 0.032843 0.189041 -1.000568
2009-11-20 10:14:38 51°14.143 2°44.06 17.8608 0.032843 0.189052 -1.000568
2009-11-20 10:14:42 51°14.135 2°44.043 17.8427 0.032843 0.189059 -1.000568
2009-11-20 10:14:48 51°14.124 2°44.018 17.8369 0.032843 0.189044 -1.000568
2009-11-20 10:14:53 51°14.114 2°43.997 17.8359 0.032843 0.189044 -1.000568
2009-11-20 10:14:58 51°14.104 2°43.976 17.8468 0.032843 0.189059 -1.035392
2009-11-20 10:15:03 51°14.095 2°43.955 17.8295 0.032843 0.189073 -1.035392
2009-11-20 10:15:08 51°14.085 2°43.934 17.8269 0.032843 0.18908 -1.035392
2009-11-20 10:15:13 51°14.075 2°43.913 17.8568 0.032843 0.189083 -1.000568
2009-11-20 10:15:18 51°14.065 2°43.892 17.8188 0.032843 0.189097 -1.000568
2009-11-20 10:15:22 51°14.058 2°43.875 17.8588 0.032843 0.189097 -1.000568
2009-11-20 10:15:28 51°14.046 2°43.849 17.8663 0.032843 0.18908 -1.035392
2009-11-20 10:15:33 51°14.037 2°43.828 17.8931 0.032843 0.189097 -1.035392
2009-11-20 10:15:38 51°14.027 2°43.807 17.8508 0.032843 0.189101 -1.000568
2009-11-20 10:15:43 51°14.017 2°43.786 17.8505 0.032843 0.189087 -1.035392
2009-11-20 10:15:48 51°14.007 2°43.765 17.8363 0.032843 0.189101 -1.000568
2009-11-20 10:15:53 51°13.998 2°43.744 17.8603 0.032843 0.189101 -1.000568
2009-11-20 10:15:58 51°13.988 2°43.723 17.8279 0.032843 0.189104 -1.035392
2009-11-20 10:16:03 51°13.978 2°43.702 17.8442 0.032843 0.189087 -1.035392
2009-11-20 10:16:08 51°13.968 2°43.681 17.8673 0.032843 0.189115 -1.000568
2009-11-20 10:16:13 51°13.959 2°43.659 17.8428 0.032843 0.189122 -1.000568
2009-11-20 10:16:18 51°13.949 2°43.638 17.861 0.032843 0.189125 -1.035392
2009-11-20 10:16:23 51°13.94 2°43.617 17.8478 0.032843 0.189125 -1.035392
2009-11-20 10:16:28 51°13.93 2°43.596 17.8225 0.032843 0.189161 -1.035392
2009-11-20 10:16:33 51°13.921 2°43.575 17.8604 0.032843 0.189168 -1.035392
2009-11-20 10:16:38 51°13.911 2°43.554 17.8544 0.032843 0.189171 -1.035392
2009-11-20 10:16:42 51°13.903 2°43.537 17.8937 0.032741 0.18858 -1.035392
2009-11-20 10:16:48 51°13.892 2°43.512 17.8443 0.032843 0.189199 -1.035392
2009-11-20 10:16:53 51°13.882 2°43.491 17.8492 0.032843 0.189199 -1.035392
2009-11-20 10:16:58 51°13.872 2°43.47 17.8643 0.032741 0.188569 -1.000568
2009-11-20 10:17:03 51°13.863 2°43.449 17.8603 0.032741 0.188566 -1.035392
2009-11-20 10:17:08 51°13.853 2°43.428 17.8621 0.032843 0.189203 -1.000568
2009-11-20 10:17:13 51°13.843 2°43.407 17.8519 0.032741 0.188597 -1.000568
2009-11-20 10:17:18 51°13.834 2°43.386 17.8586 0.032741 0.188594 -1.035392
2009-11-20 10:17:22 51°13.826 2°43.37 17.8554 0.032741 0.188594 -1.035392
2009-11-20 10:17:28 51°13.814 2°43.344 17.8734 0.032741 0.188611 -1.035392
2009-11-20 10:17:33 51°13.805 2°43.323 17.8318 0.032741 0.188647 -1.000568
2009-11-20 10:17:38 51°13.795 2°43.302 17.8631 0.032741 0.188626 -1.000568
2009-11-20 10:17:43 51°13.786 2°43.281 17.8511 0.032741 0.188626 -1.035392
2009-11-20 10:17:48 51°13.776 2°43.26 17.8732 0.032741 0.188619 -1.000568
2009-11-20 10:17:53 51°13.766 2°43.239 17.8918 0.032741 0.188619 -1.000568
2009-11-20 10:17:58 51°13.757 2°43.218 17.8677 0.032741 0.188622 -1.035392
2009-11-20 10:18:03 51°13.747 2°43.197 17.8704 0.032741 0.188622 -1.035392
2009-11-20 10:18:08 51°13.737 2°43.176 17.8967 0.032741 0.188647 -1.000568
2009-11-20 10:18:13 51°13.728 2°43.155 17.8909 0.032741 0.188685 -1.035392
2009-11-20 10:18:18 51°13.718 2°43.134 17.8389 0.032741 0.188689 -1.035392
2009-11-20 10:18:23 51°13.709 2°43.113 17.8633 0.032741 0.188689 -1.035392
2009-11-20 10:18:28 51°13.699 2°43.092 17.846 0.032741 0.188692 -1.000568
2009-11-20 10:18:33 51°13.689 2°43.071 17.8623 0.032741 0.188696 -1.000568
2009-11-20 10:18:38 51°13.679 2°43.05 17.8894 0.032741 0.188682 -1.000568
2009-11-20 10:18:43 51°13.67 2°43.029 17.8563 0.032741 0.188692 -1.000568
2009-11-20 10:18:48 51°13.66 2°43.008 17.855 0.032741 0.188675 -1.000568
2009-11-20 10:18:53 51°13.65 2°42.987 17.8862 0.032741 0.188675 -1.000568
2009-11-20 10:18:58 51°13.64 2°42.966 17.8691 0.032741 0.188717 -1.000568
2009-11-20 10:19:02 51°13.632 2°42.95 17.8788 0.032741 0.188731 -1.035392
2009-11-20 10:19:08 51°13.621 2°42.925 17.8393 0.032741 0.188706 -1.000568
2009-11-20 10:19:13 51°13.611 2°42.904 17.8648 0.032741 0.188717 -1.035392
2009-11-20 10:19:18 51°13.602 2°42.883 17.8633 0.032741 0.188742 -1.000568
2009-11-20 10:19:22 51°13.594 2°42.866 17.8607 0.032741 0.188742 -1.000568
2009-11-20 10:19:28 51°13.582 2°42.841 17.8416 0.032741 0.188745 -1.035392
2009-11-20 10:19:33 51°13.572 2°42.82 17.8585 0.032741 0.188756 -1.035392
2009-11-20 10:19:38 51°13.563 2°42.799 17.8908 0.032741 0.188777 -1.035392
2009-11-20 10:19:43 51°13.553 2°42.778 17.8848 0.032741 0.188805 -1.000568
2009-11-20 10:19:48 51°13.543 2°42.757 17.8997 0.032741 0.188808 -1.035392
2009-11-20 10:19:53 51°13.534 2°42.736 17.863 0.032741 0.188808 -1.035392
2009-11-20 10:19:58 51°13.524 2°42.715 17.85 0.032741 0.188784 -1.000568
2009-11-20 10:20:02 51°13.516 2°42.698 17.8599 0.032741 0.188773 -1.035392
2009-11-20 10:20:08 51°13.504 2°42.673 17.8565 0.032741 0.188766 -1.035392
2009-11-20 10:20:13 51°13.495 2°42.652 17.8773 0.032741 0.188798 -1.000568
2009-11-20 10:20:18 51°13.485 2°42.631 17.8882 0.032741 0.188826 -1.000568
2009-11-20 10:20:23 51°13.475 2°42.61 17.8517 0.032741 0.188826 -1.000568
2009-11-20 10:20:28 51°13.465 2°42.589 17.8508 0.032741 0.188844 -1.035392
2009-11-20 10:20:33 51°13.456 2°42.568 17.8835 0.032741 0.188798 -1.035392
2009-11-20 10:20:38 51°13.446 2°42.547 17.867 0.032741 0.188823 -1.035392
2009-11-20 10:20:43 51°13.436 2°42.526 17.8888 0.032741 0.188833 -1.035392
2009-11-20 10:20:48 51°13.427 2°42.505 17.8876 0.032741 0.188858 -1.035392
2009-11-20 10:20:53 51°13.417 2°42.485 17.9179 0.032741 0.188858 -1.035392
2009-11-20 10:20:58 51°13.407 2°42.464 17.8451 0.032741 0.188844 -1.035392
2009-11-20 10:21:03 51°13.397 2°42.443 17.8581 0.032741 0.188854 -1.035392
2009-11-20 10:21:08 51°13.388 2°42.422 17.8881 0.032741 0.188854 -1.035392
2009-11-20 10:21:13 51°13.378 2°42.401 17.8944 0.032741 0.188844 -1.000568
2009-11-20 10:21:18 51°13.368 2°42.38 17.8716 0.032741 0.188875 -1.000568
2009-11-20 10:21:22 51°13.36 2°42.363 17.9119 0.032741 0.188875 -1.000568
2009-11-20 10:21:28 51°13.349 2°42.338 17.8743 0.032741 0.188897 -1.035392
2009-11-20 10:21:33 51°13.339 2°42.317 17.8925 0.032741 0.188897 -1.035392
2009-11-20 10:21:38 51°13.329 2°42.296 17.8869 0.032741 0.188882 -1.000568
2009-11-20 10:21:42 51°13.321 2°42.279 17.9178 0.032741 0.188858 -1.035392
2009-11-20 10:21:48 51°13.31 2°42.254 17.9294 0.032741 0.1889 -1.000568
2009-11-20 10:21:53 51°13.3 2°42.233 17.9223 0.032741 0.1889 -1.000568
2009-11-20 10:21:58 51°13.29 2°42.212 17.9406 0.032741 0.188904 -1.000568
2009-11-20 10:22:03 51°13.281 2°42.191 17.8888 0.032741 0.188879 -1.035392
2009-11-20 10:22:08 51°13.271 2°42.17 17.8774 0.032741 0.188879 -1.000568
2009-11-20 10:22:13 51°13.261 2°42.149 17.8652 0.032741 0.188893 -1.035392
2009-11-20 10:22:18 51°13.252 2°42.128 17.9 0.032741 0.1889 -1.000568
2009-11-20 10:22:22 51°13.244 2°42.111 17.8932 0.032741 0.1889 -1.000568
2009-11-20 10:22:28 51°13.232 2°42.086 17.8868 0.032741 0.188904 -1.035392
2009-11-20 10:22:33 51°13.223 2°42.065 17.8922 0.032741 0.188914 -1.035392
2009-11-20 10:22:38 51°13.213 2°42.044 17.8763 0.032741 0.188921 -1.035392
2009-11-20 10:22:43 51°13.203 2°42.023 17.8877 0.032741 0.188964 -1.035392
2009-11-20 10:22:48 51°13.194 2°42.002 17.8683 0.032741 0.188942 -1.035392
2009-11-20 10:22:53 51°13.184 2°41.981 17.8854 0.032741 0.188942 -1.035392
2009-11-20 10:22:58 51°13.174 2°41.961 17.8883 0.032741 0.188967 -1.035392
2009-11-20 10:23:03 51°13.165 2°41.94 17.8763 0.032741 0.18896 -1.035392
2009-11-20 10:23:08 51°13.155 2°41.919 17.876 0.032741 0.188988 -1.000568
2009-11-20 10:23:13 51°13.146 2°41.898 17.9091 0.032741 0.189002 -1.035392
2009-11-20 10:23:18 51°13.136 2°41.877 17.8647 0.032741 0.189017 -1.000568
2009-11-20 10:23:22 51°13.128 2°41.86 17.8969 0.032741 0.189017 -1.000568
2009-11-20 10:23:28 51°13.116 2°41.835 17.9014 0.032741 0.189017 -1.035392
2009-11-20 10:23:33 51°13.107 2°41.815 17.9004 0.032741 0.189031 -1.000568
2009-11-20 10:23:38 51°13.097 2°41.794 17.9167 0.032741 0.189038 -1.000568
2009-11-20 10:23:43 51°13.087 2°41.773 17.8993 0.032741 0.189055 -1.035392
2009-11-20 10:23:48 51°13.078 2°41.752 17.9078 0.032741 0.189041 -1.035392
2009-11-20 10:23:53 51°13.068 2°41.731 17.8914 0.032741 0.189041 -1.035392
2009-11-20 10:23:58 51°13.058 2°41.71 17.8739 0.032741 0.18901 -1.035392
2009-11-20 10:24:02 51°13.051 2°41.694 17.9177 0.032741 0.189027 -1.035392
2009-11-20 10:24:08 51°13.039 2°41.669 17.936 0.032741 0.18907 -1.035392
2009-11-20 10:24:13 51°13.029 2°41.648 17.9328 0.032741 0.189077 -1.000568
2009-11-20 10:24:18 51°13.02 2°41.627 17.9264 0.032741 0.18908 -1.035392
2009-11-20 10:24:22 51°13.012 2°41.61 17.8869 0.032741 0.18908 -1.035392
2009-11-20 10:24:28 51°13 2°41.585 17.8799 0.032741 0.189052 -1.000568
2009-11-20 10:24:33 51°12.991 2°41.564 17.8975 0.032741 0.189024 -1.000568
2009-11-20 10:24:38 51°12.981 2°41.543 17.9239 0.032741 0.189027 -1.000568
2009-11-20 10:24:43 51°12.972 2°41.521 17.9247 0.032741 0.18907 -1.035392
2009-11-20 10:24:48 51°12.963 2°41.5 17.944 0.032741 0.189108 -1.035392
2009-11-20 10:24:53 51°12.954 2°41.478 17.9366 0.032741 0.189108 -1.035392
2009-11-20 10:24:58 51°12.945 2°41.457 17.9041 0.032741 0.189108 -1.035392
2009-11-20 10:25:03 51°12.936 2°41.435 17.9176 0.032741 0.189077 -1.035392
2009-11-20 10:25:08 51°12.927 2°41.413 17.8967 0.032741 0.189059 -1.035392
2009-11-20 10:25:13 51°12.918 2°41.391 17.9108 0.032741 0.189105 -1.035392
2009-11-20 10:25:18 51°12.909 2°41.369 17.9075 0.032741 0.189123 -1.035392
2009-11-20 10:25:23 51°12.901 2°41.348 17.9229 0.032741 0.189123 -1.035392
2009-11-20 10:25:28 51°12.892 2°41.326 17.9366 0.032741 0.189151 -1.035392
2009-11-20 10:25:33 51°12.883 2°41.304 17.8975 0.032741 0.189151 -1.035392
2009-11-20 10:25:38 51°12.875 2°41.282 17.9256 0.032741 0.18914 -1.000568
2009-11-20 10:25:43 51°12.866 2°41.259 17.9529 0.032741 0.189137 -1.035392
2009-11-20 10:25:48 51°12.857 2°41.238 17.9635 0.032741 0.189151 -1.035392
2009-11-20 10:25:53 51°12.849 2°41.216 17.9728 0.032741 0.189151 -1.035392
2009-11-20 10:25:58 51°12.84 2°41.194 17.9331 0.032741 0.189137 -1.000568
2009-11-20 10:26:02 51°12.833 2°41.176 17.8981 0.032741 0.189144 -1.035392
2009-11-20 10:26:08 51°12.822 2°41.15 17.9336 0.032741 0.189154 -1.035392
2009-11-20 10:26:13 51°12.813 2°41.128 17.9666 0.032741 0.189165 -1.035392
2009-11-20 10:26:18 51°12.804 2°41.106 17.9485 0.032741 0.189169 -1.035392
2009-11-20 10:26:23 51°12.795 2°41.085 17.9642 0.032741 0.189169 -1.035392
2009-11-20 10:26:28 51°12.786 2°41.063 17.9674 0.032741 0.189162 -1.035392
2009-11-20 10:26:33 51°12.777 2°41.041 17.9627 0.032741 0.189176 -1.035392
2009-11-20 10:26:38 51°12.768 2°41.02 17.944 0.032741 0.189197 -1.035392
2009-11-20 10:26:42 51°12.761 2°41.003 17.9003 0.032741 0.189211 -1.035392
2009-11-20 10:26:48 51°12.75 2°40.977 17.9289 0.032741 0.1892 -1.035392
2009-11-20 10:26:53 51°12.74 2°40.956 17.899 0.032741 0.1892 -1.035392
2009-11-20 10:26:58 51°12.73 2°40.935 17.9503 0.032741 0.189232 -1.035392
2009-11-20 10:27:03 51°12.721 2°40.914 17.8898 0.032741 0.18925 -1.000568
2009-11-20 10:27:08 51°12.712 2°40.893 17.9217 0.032741 0.18925 -1.035392
2009-11-20 10:27:13 51°12.702 2°40.871 17.9271 0.032741 0.189243 -1.035392
2009-11-20 10:27:18 51°12.693 2°40.85 17.9117 0.032741 0.189218 -1.035392
2009-11-20 10:27:23 51°12.683 2°40.829 17.9077 0.032741 0.189218 -1.035392
2009-11-20 10:27:28 51°12.673 2°40.808 17.9314 0.032741 0.189257 -1.035392
2009-11-20 10:27:33 51°12.664 2°40.787 17.9141 0.032741 0.189254 -1.000568
2009-11-20 10:27:38 51°12.654 2°40.766 17.9241 0.032741 0.189254 -1.035392
2009-11-20 10:27:43 51°12.645 2°40.745 17.9318 0.032741 0.189282 -1.000568
2009-11-20 10:27:48 51°12.635 2°40.724 17.9564 0.032638 0.188685 -1.035392
2009-11-20 10:27:53 51°12.626 2°40.703 17.9533 0.032638 0.188685 -1.035392
2009-11-20 10:27:58 51°12.616 2°40.681 17.906 0.032638 0.188667 -1.000568
2009-11-20 10:28:02 51°12.608 2°40.665 17.9352 0.032741 0.189247 -1.035392
2009-11-20 10:28:08 51°12.597 2°40.64 17.8943 0.032741 0.189285 -1.035392
2009-11-20 10:28:13 51°12.587 2°40.619 17.9128 0.032741 0.189282 -1.035392
2009-11-20 10:28:18 51°12.577 2°40.598 17.9283 0.032638 0.188706 -1.035392
2009-11-20 10:28:22 51°12.57 2°40.581 17.9318 0.032638 0.188706 -1.035392
2009-11-20 10:28:28 51°12.558 2°40.555 17.939 0.032638 0.188724 -1.035392
2009-11-20 10:28:33 51°12.549 2°40.533 17.934 0.032741 0.189328 -1.035392
2009-11-20 10:28:38 51°12.54 2°40.512 17.9365 0.032638 0.188709 -1.000568
2009-11-20 10:28:43 51°12.531 2°40.491 17.9449 0.032638 0.188717 -1.035392
2009-11-20 10:28:48 51°12.521 2°40.47 17.9503 0.032638 0.188724 -1.035392
2009-11-20 10:28:53 51°12.511 2°40.449 17.9518 0.032638 0.188724 -1.035392
2009-11-20 10:28:58 51°12.502 2°40.428 17.9712 0.032638 0.188752 -1.000568
2009-11-20 10:29:02 51°12.494 2°40.411 17.942 0.032638 0.188741 -1.035392
2009-11-20 10:29:08 51°12.483 2°40.385 17.9569 0.032638 0.188727 -1.035392
2009-11-20 10:29:13 51°12.473 2°40.364 17.9392 0.032638 0.188734 -1.035392
2009-11-20 10:29:18 51°12.463 2°40.343 17.9194 0.032638 0.188724 -1.035392
2009-11-20 10:29:23 51°12.454 2°40.322 17.9365 0.032638 0.188724 -1.035392
2009-11-20 10:29:28 51°12.444 2°40.301 17.9447 0.032638 0.188755 -1.035392
2009-11-20 10:29:33 51°12.435 2°40.28 17.9442 0.032638 0.188755 -1.035392
2009-11-20 10:29:38 51°12.425 2°40.259 17.9825 0.032638 0.188773 -1.000568
2009-11-20 10:29:43 51°12.415 2°40.238 17.9357 0.032638 0.188794 -1.035392
2009-11-20 10:29:48 51°12.406 2°40.217 17.9661 0.032638 0.188791 -1.000568
2009-11-20 10:29:53 51°12.396 2°40.196 17.945 0.032638 0.188791 -1.000568
2009-11-20 10:29:58 51°12.387 2°40.174 17.9326 0.032638 0.188816 -1.035392
2009-11-20 10:30:02 51°12.379 2°40.158 17.9371 0.032638 0.188787 -1.035392
2009-11-20 10:30:08 51°12.367 2°40.132 17.9524 0.032638 0.188777 -1.035392
2009-11-20 10:30:13 51°12.358 2°40.111 17.9495 0.032638 0.188784 -1.000568
2009-11-20 10:30:18 51°12.348 2°40.09 17.9517 0.032741 0.189413 -1.000568
2009-11-20 10:30:23 51°12.339 2°40.069 17.9205 0.032741 0.189413 -1.000568
2009-11-20 10:30:28 51°12.329 2°40.048 17.9559 0.032638 0.188812 -1.035392
2009-11-20 10:30:33 51°12.319 2°40.028 17.9314 0.032741 0.189427 -1.035392
2009-11-20 10:30:38 51°12.31 2°40.007 17.9424 0.032638 0.188851 -1.035392
2009-11-20 10:30:42 51°12.302 2°39.99 17.9249 0.032741 0.189481 -1.035392
2009-11-20 10:30:48 51°12.291 2°39.965 17.951 0.032638 0.1889 -1.035392
2009-11-20 10:30:53 51°12.281 2°39.945 17.9501 0.032638 0.1889 -1.035392
2009-11-20 10:30:58 51°12.272 2°39.923 17.9341 0.032638 0.188908 -1.035392
2009-11-20 10:31:03 51°12.262 2°39.902 17.9525 0.032638 0.188915 -1.035392
2009-11-20 10:31:08 51°12.253 2°39.881 17.9348 0.032638 0.188915 -1.035392
2009-11-20 10:31:13 51°12.243 2°39.86 17.9364 0.032741 0.189513 -1.035392
2009-11-20 10:31:18 51°12.234 2°39.839 17.9352 0.032638 0.188904 -1.035392
2009-11-20 10:31:23 51°12.224 2°39.818 17.985 0.032638 0.188904 -1.035392
2009-11-20 10:31:28 51°12.215 2°39.797 17.974 0.032638 0.188904 -1.035392
2009-11-20 10:31:33 51°12.205 2°39.776 17.9982 0.032638 0.188897 -1.035392
2009-11-20 10:31:38 51°12.196 2°39.755 17.9479 0.032638 0.188893 -1.035392
2009-11-20 10:31:43 51°12.186 2°39.734 17.9782 0.032638 0.188879 -1.035392
2009-11-20 10:31:48 51°12.177 2°39.713 17.9733 0.032638 0.188908 -1.035392
2009-11-20 10:31:53 51°12.167 2°39.692 17.9775 0.032638 0.188908 -1.035392
2009-11-20 10:31:58 51°12.157 2°39.671 17.9756 0.032638 0.18889 -1.035392
2009-11-20 10:32:03 51°12.148 2°39.65 17.9918 0.032638 0.188893 -1.035392
2009-11-20 10:32:08 51°12.139 2°39.629 17.9664 0.032638 0.188915 -1.000568
2009-11-20 10:32:13 51°12.129 2°39.608 17.9753 0.032638 0.188908 -1.035392
2009-11-20 10:32:18 51°12.12 2°39.586 17.9598 0.032638 0.188893 -1.035392
2009-11-20 10:32:23 51°12.11 2°39.565 17.9922 0.032638 0.188893 -1.035392
2009-11-20 10:32:28 51°12.101 2°39.544 18.0127 0.032638 0.188869 -1.035392
2009-11-20 10:32:33 51°12.091 2°39.523 17.9914 0.032638 0.188883 -1.035392
2009-11-20 10:32:38 51°12.082 2°39.502 17.9543 0.032638 0.188886 -1.035392
2009-11-20 10:32:42 51°12.074 2°39.485 17.9903 0.032638 0.188904 -1.035392
2009-11-20 10:32:48 51°12.063 2°39.46 17.959 0.032638 0.188904 -1.035392
2009-11-20 10:32:53 51°12.053 2°39.439 17.9449 0.032638 0.188904 -1.035392
2009-11-20 10:32:58 51°12.044 2°39.417 17.9481 0.032741 0.18952 -1.035392
2009-11-20 10:33:03 51°12.034 2°39.397 17.9667 0.032741 0.189541 -1.035392
2009-11-20 10:33:08 51°12.025 2°39.376 17.9796 0.032638 0.188943 -1.035392
2009-11-20 10:33:13 51°12.016 2°39.355 17.9832 0.032638 0.18895 -1.035392
2009-11-20 10:33:18 51°12.006 2°39.333 18.0134 0.032638 0.188954 -1.035392
2009-11-20 10:33:22 51°11.999 2°39.317 18.0216 0.032638 0.188954 -1.035392
2009-11-20 10:33:28 51°11.988 2°39.291 17.9709 0.032638 0.188947 -1.035392
2009-11-20 10:33:33 51°11.978 2°39.27 17.9755 0.032638 0.18895 -1.035392
2009-11-20 10:33:38 51°11.968 2°39.249 17.9778 0.032638 0.188954 -1.035392
2009-11-20 10:33:43 51°11.959 2°39.228 17.9703 0.032638 0.188957 -1.035392
2009-11-20 10:33:48 51°11.949 2°39.207 17.9857 0.032638 0.188961 -1.000568
2009-11-20 10:33:53 51°11.94 2°39.186 17.9712 0.032638 0.188961 -1.000568
2009-11-20 10:33:58 51°11.931 2°39.165 17.9879 0.032638 0.188996 -1.035392
2009-11-20 10:34:02 51°11.924 2°39.148 17.9622 0.032638 0.188996 -1.035392
2009-11-20 10:34:08 51°11.912 2°39.123 17.9804 0.032638 0.188996 -1.035392
2009-11-20 10:34:13 51°11.903 2°39.102 18.003 0.032638 0.189003 -1.035392
2009-11-20 10:34:18 51°11.894 2°39.081 17.9969 0.032638 0.189021 -1.035392
2009-11-20 10:34:23 51°11.884 2°39.06 17.9826 0.032638 0.189021 -1.035392
2009-11-20 10:34:28 51°11.874 2°39.04 17.9711 0.032638 0.189028 -1.035392
2009-11-20 10:34:33 51°11.865 2°39.019 17.9892 0.032638 0.189025 -1.035392
2009-11-20 10:34:38 51°11.855 2°38.998 17.9849 0.032638 0.189017 -1.035392
2009-11-20 10:34:42 51°11.847 2°38.982 18.0178 0.032638 0.189003 -1.035392
2009-11-20 10:34:48 51°11.836 2°38.957 18.0435 0.032638 0.189017 -1.035392
2009-11-20 10:34:53 51°11.826 2°38.936 17.992 0.032638 0.189017 -1.035392
2009-11-20 10:34:58 51°11.817 2°38.916 17.9963 0.032638 0.189025 -1.035392
2009-11-20 10:35:02 51°11.809 2°38.899 17.9957 0.032638 0.189032 -1.035392
2009-11-20 10:35:08 51°11.797 2°38.874 17.9912 0.032638 0.189035 -1.035392
2009-11-20 10:35:13 51°11.788 2°38.853 18.0115 0.032638 0.189028 -1.035392
2009-11-20 10:35:18 51°11.779 2°38.832 18.0215 0.032638 0.18906 -1.035392
2009-11-20 10:35:23 51°11.769 2°38.811 18.0273 0.032638 0.18906 -1.035392
2009-11-20 10:35:28 51°11.76 2°38.79 18.0149 0.032638 0.189064 -1.035392
2009-11-20 10:35:33 51°11.751 2°38.769 17.9907 0.032638 0.189035 -1.035392
2009-11-20 10:35:38 51°11.741 2°38.748 18.0141 0.032638 0.189056 -1.035392
2009-11-20 10:35:42 51°11.734 2°38.731 17.9727 0.032638 0.189064 -1.000568
2009-11-20 10:35:48 51°11.722 2°38.706 17.998 0.032638 0.18906 -1.035392
2009-11-20 10:35:53 51°11.713 2°38.685 17.9989 0.032638 0.18906 -1.035392
2009-11-20 10:35:58 51°11.704 2°38.664 17.9648 0.032638 0.189067 -1.035392
2009-11-20 10:36:03 51°11.694 2°38.644 18.0009 0.032638 0.18906 -1.035392
2009-11-20 10:36:08 51°11.685 2°38.622 18.0363 0.032638 0.189088 -1.035392
2009-11-20 10:36:13 51°11.675 2°38.602 18.0539 0.032638 0.189085 -1.035392
2009-11-20 10:36:18 51°11.666 2°38.581 18.0848 0.032638 0.189081 -1.035392
2009-11-20 10:36:23 51°11.657 2°38.56 18.0289 0.032638 0.189081 -1.035392
2009-11-20 10:36:28 51°11.647 2°38.539 18.0223 0.032638 0.189081 -1.035392
2009-11-20 10:36:33 51°11.638 2°38.518 17.9798 0.032638 0.189064 -1.035392
2009-11-20 10:36:38 51°11.628 2°38.497 18.0306 0.032638 0.189085 -1.035392
2009-11-20 10:36:43 51°11.619 2°38.476 18.0243 0.032638 0.18911 -1.035392
2009-11-20 10:36:48 51°11.609 2°38.456 18.0381 0.032638 0.189103 -1.035392
2009-11-20 10:36:53 51°11.6 2°38.434 18.0461 0.032638 0.189103 -1.035392
2009-11-20 10:36:58 51°11.59 2°38.414 18.0187 0.032638 0.189103 -1.035392
2009-11-20 10:37:02 51°11.583 2°38.397 18.0199 0.032638 0.189078 -1.035392
2009-11-20 10:37:08 51°11.571 2°38.372 18.0175 0.032638 0.189085 -1.035392
2009-11-20 10:37:13 51°11.562 2°38.351 18.027 0.032638 0.189092 -1.035392
2009-11-20 10:37:18 51°11.553 2°38.33 18.0506 0.032638 0.189103 -1.035392
2009-11-20 10:37:23 51°11.544 2°38.309 18.0008 0.032638 0.189103 -1.035392
2009-11-20 10:37:28 51°11.534 2°38.288 18.0327 0.032638 0.189113 -1.000568
2009-11-20 10:37:33 51°11.525 2°38.267 18.0046 0.032638 0.189117 -1.035392
2009-11-20 10:37:38 51°11.515 2°38.246 18.0088 0.032638 0.189124 -1.035392
2009-11-20 10:37:42 51°11.508 2°38.23 18.0119 0.032638 0.189113 -1.035392
2009-11-20 10:37:48 51°11.496 2°38.205 18.0365 0.032638 0.189138 -1.035392
2009-11-20 10:37:53 51°11.487 2°38.184 18.0258 0.032638 0.189138 -1.035392
2009-11-20 10:37:58 51°11.477 2°38.163 18.0073 0.032638 0.189156 -1.035392
2009-11-20 10:38:03 51°11.468 2°38.142 18.0169 0.032638 0.189149 -1.035392
2009-11-20 10:38:08 51°11.458 2°38.121 18.0344 0.032638 0.189156 -1.035392
2009-11-20 10:38:13 51°11.449 2°38.1 18.0431 0.032638 0.189163 -1.035392
2009-11-20 10:38:18 51°11.439 2°38.079 18.0242 0.032638 0.189159 -1.035392
2009-11-20 10:38:22 51°11.432 2°38.063 18.0542 0.032638 0.189159 -1.035392
2009-11-20 10:38:28 51°11.421 2°38.037 18.0631 0.032638 0.189152 -1.035392
2009-11-20 10:38:33 51°11.411 2°38.016 18.0153 0.032638 0.189163 -1.035392
2009-11-20 10:38:38 51°11.402 2°37.995 18.0124 0.032638 0.189156 -1.000568
2009-11-20 10:38:43 51°11.392 2°37.974 18.0238 0.032638 0.189135 -1.035392
2009-11-20 10:38:48 51°11.383 2°37.953 18.0354 0.032638 0.189142 -1.035392
2009-11-20 10:38:53 51°11.374 2°37.932 18.0299 0.032638 0.189142 -1.035392
2009-11-20 10:38:58 51°11.364 2°37.911 18.0638 0.032638 0.189152 -1.035392
2009-11-20 10:39:03 51°11.355 2°37.89 18.0621 0.032638 0.189181 -1.035392
2009-11-20 10:39:08 51°11.346 2°37.869 18.0573 0.032638 0.189181 -1.035392
2009-11-20 10:39:13 51°11.336 2°37.848 18.0246 0.032638 0.189167 -1.035392
2009-11-20 10:39:18 51°11.327 2°37.827 18.0329 0.032638 0.189145 -1.035392
2009-11-20 10:39:22 51°11.319 2°37.81 18.029 0.032638 0.189145 -1.035392
2009-11-20 10:39:28 51°11.308 2°37.785 18.0581 0.032638 0.189163 -1.035392
2009-11-20 10:39:33 51°11.299 2°37.764 18.0381 0.032638 0.189184 -1.035392
2009-11-20 10:39:38 51°11.289 2°37.743 18.0302 0.032638 0.189188 -1.035392
2009-11-20 10:39:43 51°11.28 2°37.722 18.0379 0.032638 0.189199 -1.035392
2009-11-20 10:39:48 51°11.271 2°37.701 18.0812 0.032638 0.189202 -1.035392
2009-11-20 10:39:53 51°11.261 2°37.68 18.0336 0.032638 0.189202 -1.035392
2009-11-20 10:39:58 51°11.252 2°37.659 18.0387 0.032638 0.189213 -1.035392
2009-11-20 10:40:02 51°11.244 2°37.642 18.0403 0.032638 0.189199 -1.035392
2009-11-20 10:40:08 51°11.233 2°37.617 18.0798 0.032638 0.189184 -1.035392
2009-11-20 10:40:13 51°11.224 2°37.596 18.048 0.032638 0.189202 -1.035392
2009-11-20 10:40:18 51°11.214 2°37.576 18.0566 0.032638 0.189191 -1.035392
2009-11-20 10:40:23 51°11.205 2°37.555 18.0418 0.032638 0.189191 -1.035392
2009-11-20 10:40:28 51°11.195 2°37.534 18.0358 0.032638 0.189181 -1.035392
2009-11-20 10:40:33 51°11.186 2°37.513 18.0494 0.032638 0.189202 -1.035392
2009-11-20 10:40:38 51°11.176 2°37.492 18.028 0.032638 0.189209 -1.035392
2009-11-20 10:40:43 51°11.167 2°37.471 18.0565 0.032638 0.189216 -1.035392
2009-11-20 10:40:48 51°11.157 2°37.45 18.0671 0.032638 0.189223 -1.035392
2009-11-20 10:40:53 51°11.148 2°37.429 18.0593 0.032638 0.189223 -1.035392
2009-11-20 10:40:58 51°11.139 2°37.409 18.0583 0.032638 0.18922 -1.035392
2009-11-20 10:41:03 51°11.129 2°37.388 18.0866 0.032638 0.189234 -1.035392
2009-11-20 10:41:08 51°11.12 2°37.367 18.0419 0.032638 0.189234 -1.035392
2009-11-20 10:41:13 51°11.11 2°37.346 18.0739 0.032638 0.189223 -1.035392
2009-11-20 10:41:18 51°11.101 2°37.325 18.0342 0.032638 0.18922 -1.035392
2009-11-20 10:41:23 51°11.092 2°37.304 18.075 0.032638 0.18922 -1.035392
2009-11-20 10:41:28 51°11.082 2°37.283 18.07 0.032638 0.18922 -1.035392
2009-11-20 10:41:33 51°11.073 2°37.263 18.0649 0.032638 0.189209 -1.035392
2009-11-20 10:41:38 51°11.063 2°37.242 18.0699 0.032638 0.189209 -1.035392
2009-11-20 10:41:42 51°11.056 2°37.225 18.0406 0.032638 0.189227 -1.035392
2009-11-20 10:41:48 51°11.045 2°37.2 18.0561 0.032638 0.189231 -1.035392
2009-11-20 10:41:53 51°11.035 2°37.179 18.0927 0.032638 0.189231 -1.035392
2009-11-20 10:41:58 51°11.026 2°37.159 18.0547 0.032638 0.189256 -1.035392
2009-11-20 10:42:02 51°11.018 2°37.142 18.0695 0.032638 0.189259 -1.035392
2009-11-20 10:42:08 51°11.007 2°37.117 18.0867 0.032638 0.18927 -1.035392
2009-11-20 10:42:13 51°10.997 2°37.096 18.0676 0.032638 0.189259 -1.035392
2009-11-20 10:42:18 51°10.988 2°37.075 18.0819 0.032638 0.18927 -1.035392
2009-11-20 10:42:23 51°10.978 2°37.055 18.0669 0.032638 0.18927 -1.035392
2009-11-20 10:42:28 51°10.969 2°37.034 18.0631 0.032638 0.18927 -1.035392
2009-11-20 10:42:33 51°10.959 2°37.013 18.065 0.032638 0.189263 -1.035392
2009-11-20 10:42:38 51°10.95 2°36.992 18.0848 0.032638 0.189259 -1.035392
2009-11-20 10:42:42 51°10.942 2°36.976 18.0563 0.032638 0.189259 -1.035392
2009-11-20 10:42:48 51°10.93 2°36.951 18.0826 0.032638 0.189291 -1.035392
2009-11-20 10:42:53 51°10.921 2°36.93 18.0545 0.032638 0.189291 -1.035392
2009-11-20 10:42:58 51°10.911 2°36.909 18.059 0.032638 0.189295 -1.035392
2009-11-20 10:43:03 51°10.902 2°36.888 18.0998 0.032638 0.189277 -1.035392
2009-11-20 10:43:07 51°10.895 2°36.872 18.0703 0.032638 0.189298 -1.035392
2009-11-20 10:43:13 51°10.883 2°36.847 18.1123 0.032638 0.189298 -1.035392
2009-11-20 10:43:18 51°10.873 2°36.826 18.0731 0.032638 0.189298 -1.035392
2009-11-20 10:43:23 51°10.864 2°36.806 18.076 0.032638 0.189298 -1.035392
2009-11-20 10:43:28 51°10.855 2°36.785 18.0819 0.032638 0.189295 -1.035392
2009-11-20 10:43:33 51°10.845 2°36.764 18.0829 0.032638 0.189298 -1.035392
2009-11-20 10:43:38 51°10.836 2°36.743 18.1131 0.032638 0.189295 -1.035392
2009-11-20 10:43:43 51°10.827 2°36.722 18.1089 0.032638 0.18927 -1.035392
2009-11-20 10:43:48 51°10.817 2°36.701 18.0757 0.032638 0.189277 -1.035392
2009-11-20 10:43:53 51°10.807 2°36.681 18.1 0.032638 0.189277 -1.035392
2009-11-20 10:43:58 51°10.797 2°36.661 18.0489 0.032638 0.189256 -1.035392
2009-11-20 10:44:02 51°10.789 2°36.645 18.0947 0.032638 0.189273 -1.035392
2009-11-20 10:44:08 51°10.777 2°36.622 18.1225 0.032638 0.189266 -1.035392
2009-11-20 10:44:13 51°10.767 2°36.602 18.1561 0.032638 0.189284 -1.035392
2009-11-20 10:44:18 51°10.755 2°36.584 18.1006 0.032638 0.189288 -1.035392
2009-11-20 10:44:23 51°10.744 2°36.565 18.0896 0.032638 0.189288 -1.035392
2009-11-20 10:44:28 51°10.734 2°36.546 18.1012 0.032638 0.18928 -1.035392
2009-11-20 10:44:33 51°10.722 2°36.528 18.1216 0.032638 0.189273 -1.035392
2009-11-20 10:44:38 51°10.711 2°36.51 18.075 0.032638 0.189277 -1.035392
2009-11-20 10:44:42 51°10.702 2°36.496 18.0887 0.032638 0.189288 -1.035392
2009-11-20 10:44:48 51°10.688 2°36.474 18.0865 0.032638 0.189298 -1.035392
2009-11-20 10:44:53 51°10.677 2°36.457 18.0952 0.032638 0.189298 -1.035392
2009-11-20 10:44:58 51°10.665 2°36.438 18.101 0.032638 0.189288 -1.035392
2009-11-20 10:45:03 51°10.654 2°36.42 18.0626 0.032638 0.189295 -1.035392
2009-11-20 10:45:08 51°10.642 2°36.403 18.0672 0.032638 0.189298 -1.035392
2009-11-20 10:45:13 51°10.63 2°36.386 18.0843 0.032638 0.189284 -1.000568
2009-11-20 10:45:18 51°10.619 2°36.368 18.129 0.032638 0.189295 -1.035392
2009-11-20 10:45:22 51°10.61 2°36.354 18.0737 0.032638 0.189295 -1.035392
2009-11-20 10:45:28 51°10.595 2°36.334 18.1016 0.032638 0.189309 -1.035392
2009-11-20 10:45:33 51°10.583 2°36.317 18.088 0.032638 0.189302 -1.035392
2009-11-20 10:45:38 51°10.571 2°36.3 18.0874 0.032638 0.189316 -1.035392
2009-11-20 10:45:43 51°10.559 2°36.284 18.1387 0.032638 0.189302 -1.035392
2009-11-20 10:45:48 51°10.546 2°36.268 18.1089 0.032741 0.189908 -1.035392
2009-11-20 10:45:53 51°10.534 2°36.252 18.1155 0.032741 0.189908 -1.035392
2009-11-20 10:45:58 51°10.522 2°36.236 18.0962 0.032638 0.189327 -1.035392
2009-11-20 10:46:02 51°10.511 2°36.225 18.0972 0.032843 0.190558 -1.035392
2009-11-20 10:46:08 51°10.496 2°36.206 18.0992 0.032741 0.189965 -1.035392
2009-11-20 10:46:13 51°10.482 2°36.192 18.1033 0.032741 0.189965 -1.035392
2009-11-20 10:46:18 51°10.469 2°36.177 18.1005 0.032741 0.189969 -1.035392
2009-11-20 10:46:22 51°10.459 2°36.166 18.1123 0.032741 0.189969 -1.035392
2009-11-20 10:46:28 51°10.443 2°36.148 18.0633 0.032741 0.189969 -1.035392
2009-11-20 10:46:33 51°10.43 2°36.135 18.082 0.032843 0.190561 -1.035392
2009-11-20 10:46:38 51°10.416 2°36.121 18.0948 0.032741 0.190005 -1.035392
2009-11-20 10:46:43 51°10.403 2°36.108 18.0965 0.032946 0.191211 -1.035392
2009-11-20 10:46:48 51°10.389 2°36.095 18.0876 0.032741 0.190033 -1.035392
2009-11-20 10:46:53 51°10.375 2°36.082 18.0956 0.032741 0.190033 -1.035392
2009-11-20 10:46:58 51°10.361 2°36.07 18.0951 0.032843 0.19064 -1.035392
2009-11-20 10:47:02 51°10.35 2°36.06 18.0862 0.032741 0.190051 -1.035392
2009-11-20 10:47:08 51°10.333 2°36.045 18.0945 0.032843 0.190684 -1.035392
2009-11-20 10:47:13 51°10.32 2°36.033 18.0869 0.032843 0.190709 -1.035392
2009-11-20 10:47:18 51°10.306 2°36.021 18.1174 0.032741 0.190087 -1.035392
2009-11-20 10:47:23 51°10.291 2°36.009 18.1417 0.032741 0.190087 -1.035392
2009-11-20 10:47:28 51°10.277 2°35.998 18.1216 0.033049 0.19192 -1.035392
2009-11-20 10:47:33 51°10.263 2°35.986 18.1012 0.032741 0.190109 -1.035392
2009-11-20 10:47:38 51°10.249 2°35.976 18.1004 0.033255 0.193142 -1.035392
2009-11-20 10:47:43 51°10.234 2°35.965 18.1482 0.032843 0.190716 -1.035392
2009-11-20 10:47:48 51°10.22 2°35.956 18.0925 0.033152 0.192542 -1.035392
2009-11-20 10:47:53 51°10.205 2°35.947 18.1202 0.033152 0.192542 -1.035392
2009-11-20 10:47:58 51°10.19 2°35.937 18.1067 0.033049 0.191956 -1.035392
2009-11-20 10:48:03 51°10.175 2°35.929 18.1141 0.033049 0.191949 -1.035392
2009-11-20 10:48:08 51°10.161 2°35.92 18.1471 0.033667 0.195625 -1.035392
2009-11-20 10:48:13 51°10.146 2°35.911 18.1413 0.033358 0.19379 -1.035392
2009-11-20 10:48:18 51°10.13 2°35.904 18.1219 0.033358 0.193805 -1.035392
2009-11-20 10:48:22 51°10.118 2°35.897 18.1015 0.033358 0.193805 -1.035392
2009-11-20 10:48:28 51°10.1 2°35.891 18.1301 0.033461 0.194416 -1.035392
2009-11-20 10:48:33 51°10.084 2°35.886 18.0879 0.032843 0.190777 -1.035392
2009-11-20 10:48:38 51°10.069 2°35.884 18.1504 0.033975 0.197503 -1.035392
2009-11-20 10:48:43 51°10.053 2°35.881 18.0982 0.033049 0.192043 -1.035392
2009-11-20 10:48:48 51°10.038 2°35.882 18.108 0.03377 0.196297 -1.035392
2009-11-20 10:48:53 51°10.022 2°35.883 18.1228 0.03377 0.196297 -1.035392
2009-11-20 10:48:58 51°10.007 2°35.884 18.0803 0.032843 0.190835 -1.035392
2009-11-20 10:49:02 51°9.995 2°35.887 18.1116 0.03377 0.19633 -1.035392
2009-11-20 10:49:08 51°9.976 2°35.891 18.0927 0.032946 0.191453 -1.035392
2009-11-20 10:49:13 51°9.961 2°35.895 18.1257 0.033975 0.197548 -1.035392
2009-11-20 10:49:18 51°9.946 2°35.899 18.1111 0.033461 0.194508 -1.035392
2009-11-20 10:49:23 51°9.931 2°35.905 18.1173 0.033461 0.194508 -1.035392
2009-11-20 10:49:27 51°9.918 2°35.909 18.1284 0.033358 0.193904 -1.035392
2009-11-20 10:49:33 51°9.9 2°35.916 18.1388 0.033873 0.196965 -1.035392